KAY350 EGCC-KLAX
Flight info
| Callsign | KAY350 |
|---|---|
| Flight time | N/A |
| Altitude | 38000 |
| Route | EKLAD UY53 WAL L10 PENIL M144 BAGSO DCT REVNU DCT SUNOT/M084F390 DCT 58N020W 58N030W 58N040W 57N050W DCT HOIST/N0496F400 DCT 5430N06000W 53N070W 51N080W 4830N09000W DCT KP12G DCT KP84A/N0491F430 DCT KD63U DCT KU51Q DCT PROMT Q88 HAKMN ANJLL4 |
| Aircraft | A359/H-SDE2E3GHIJ3J4J5LM1ORWXY/LB1D1 |
Departure
| Time | 2026-05-05 05:18 |
|---|---|
| Airport | Manchester Airport (EGCC) |
Arrival
| Time | N/A |
|---|---|
| Airport | Los Angeles International Airport (KLAX) |
| Time | Latitude | Longitude | Altitude | Speed | Heading |
|---|---|---|---|---|---|
| 2026-05-05 04:58 | 53.36772 | -2.28923 | 261 ft | 0 kts | 135° |
| 2026-05-05 05:11 | 53.36778 | -2.28933 | 261 ft | 4 kts | 135° |
| 2026-05-05 05:11 | 53.36797 | -2.28965 | 263 ft | 4 kts | 135° |
| 2026-05-05 05:11 | 53.36816 | -2.28996 | 265 ft | 3 kts | 135° |
| 2026-05-05 05:12 | 53.36834 | -2.29020 | 265 ft | 4 kts | 172° |
| 2026-05-05 05:12 | 53.36854 | -2.29008 | 266 ft | 4 kts | 225° |
| 2026-05-05 05:12 | 53.36865 | -2.28991 | 268 ft | 0 kts | 221° |
| 2026-05-05 05:14 | 53.36858 | -2.29001 | 268 ft | 14 kts | 220° |
| 2026-05-05 05:15 | 53.36716 | -2.29025 | 261 ft | 22 kts | 142° |
| 2026-05-05 05:15 | 53.36607 | -2.28843 | 261 ft | 22 kts | 127° |
| 2026-05-05 05:15 | 53.36510 | -2.28642 | 261 ft | 24 kts | 134° |
| 2026-05-05 05:15 | 53.36390 | -2.28373 | 261 ft | 29 kts | 126° |
| 2026-05-05 05:16 | 53.36250 | -2.28124 | 261 ft | 30 kts | 134° |
| 2026-05-05 05:16 | 53.36072 | -2.27862 | 261 ft | 36 kts | 142° |
| 2026-05-05 05:16 | 53.35855 | -2.27734 | 260 ft | 33 kts | 176° |
| 2026-05-05 05:16 | 53.35723 | -2.27638 | 254 ft | 31 kts | 158° |
| 2026-05-05 05:17 | 53.35547 | -2.27425 | 253 ft | 31 kts | 140° |
| 2026-05-05 05:17 | 53.35327 | -2.27193 | 250 ft | 42 kts | 179° |
| 2026-05-05 05:17 | 53.35032 | -2.27307 | 234 ft | 43 kts | 213° |
| 2026-05-05 05:17 | 53.34801 | -2.27750 | 232 ft | 78 kts | 231° |
| 2026-05-05 05:18 | 53.34269 | -2.28853 | 236 ft | 163 kts | 231° |
| 2026-05-05 05:18 | 53.33485 | -2.30482 | 916 ft | 186 kts | 232° |
| 2026-05-05 05:18 | 53.32666 | -2.32276 | 1895 ft | 207 kts | 243° |
| 2026-05-05 05:18 | 53.32382 | -2.34667 | 2892 ft | 218 kts | 280° |
| 2026-05-05 05:19 | 53.32684 | -2.37199 | 4141 ft | 225 kts | 286° |
| 2026-05-05 05:19 | 53.32972 | -2.39754 | 5584 ft | 222 kts | 275° |
| 2026-05-05 05:19 | 53.32803 | -2.42340 | 6838 ft | 228 kts | 257° |
| 2026-05-05 05:19 | 53.32352 | -2.44997 | 7692 ft | 248 kts | 254° |
| 2026-05-05 05:20 | 53.31807 | -2.47872 | 8460 ft | 270 kts | 253° |
| 2026-05-05 05:20 | 53.31226 | -2.50975 | 9239 ft | 289 kts | 253° |
| 2026-05-05 05:20 | 53.30611 | -2.54275 | 10010 ft | 305 kts | 253° |
| 2026-05-05 05:20 | 53.29966 | -2.57750 | 10735 ft | 319 kts | 253° |
| 2026-05-05 05:21 | 53.29296 | -2.61370 | 11460 ft | 333 kts | 253° |
| 2026-05-05 05:21 | 53.28598 | -2.65138 | 12213 ft | 346 kts | 253° |
| 2026-05-05 05:21 | 53.27875 | -2.69047 | 12976 ft | 358 kts | 253° |
| 2026-05-05 05:21 | 53.27132 | -2.73090 | 13775 ft | 370 kts | 253° |
| 2026-05-05 05:22 | 53.26417 | -2.77284 | 14489 ft | 381 kts | 258° |
| 2026-05-05 05:22 | 53.26279 | -2.81735 | 15221 ft | 391 kts | 276° |
| 2026-05-05 05:22 | 53.27077 | -2.86120 | 15978 ft | 401 kts | 295° |
| 2026-05-05 05:22 | 53.28502 | -2.90186 | 16749 ft | 411 kts | 302° |
| 2026-05-05 05:23 | 53.30183 | -2.94078 | 17628 ft | 414 kts | 306° |
| 2026-05-05 05:23 | 53.31966 | -2.97865 | 18693 ft | 412 kts | 307° |
| 2026-05-05 05:23 | 53.33730 | -3.01552 | 19681 ft | 409 kts | 307° |
| 2026-05-05 05:23 | 53.35509 | -3.05321 | 20727 ft | 404 kts | 307° |
| 2026-05-05 05:24 | 53.37216 | -3.09019 | 21801 ft | 398 kts | 306° |
| 2026-05-05 05:24 | 53.38845 | -3.12619 | 22885 ft | 389 kts | 306° |
| 2026-05-05 05:24 | 53.40445 | -3.16215 | 23969 ft | 379 kts | 306° |
| 2026-05-05 05:24 | 53.41963 | -3.19739 | 24913 ft | 368 kts | 305° |
| 2026-05-05 05:25 | 53.43435 | -3.23219 | 25630 ft | 365 kts | 305° |
| 2026-05-05 05:25 | 53.44892 | -3.26686 | 26256 ft | 362 kts | 305° |
| 2026-05-05 05:25 | 53.46336 | -3.30123 | 26893 ft | 359 kts | 305° |
| 2026-05-05 05:25 | 53.47771 | -3.33529 | 27564 ft | 355 kts | 305° |
| 2026-05-05 05:26 | 53.49186 | -3.36881 | 28249 ft | 349 kts | 305° |
| 2026-05-05 05:26 | 53.50581 | -3.40181 | 28941 ft | 342 kts | 305° |
| 2026-05-05 05:26 | 53.51943 | -3.43401 | 29640 ft | 334 kts | 306° |
| 2026-05-05 05:26 | 53.53276 | -3.46555 | 30173 ft | 330 kts | 305° |
| 2026-05-05 05:27 | 53.54610 | -3.49716 | 30431 ft | 332 kts | 306° |
| 2026-05-05 05:27 | 53.55952 | -3.52897 | 30667 ft | 335 kts | 305° |
| 2026-05-05 05:27 | 53.58671 | -3.59377 | 31002 ft | 344 kts | 304° |
| 2026-05-05 05:28 | 53.60933 | -3.66707 | 31046 ft | 364 kts | 290° |
| 2026-05-05 05:28 | 53.61637 | -3.70871 | 31046 ft | 375 kts | 282° |
| 2026-05-05 05:28 | 53.62010 | -3.75299 | 31046 ft | 387 kts | 276° |
| 2026-05-05 05:29 | 53.62253 | -3.79874 | 31044 ft | 398 kts | 275° |
| 2026-05-05 05:29 | 53.62444 | -3.84526 | 31043 ft | 410 kts | 274° |
| 2026-05-05 05:29 | 53.62620 | -3.89393 | 31045 ft | 421 kts | 274° |
| 2026-05-05 05:29 | 53.62797 | -3.94381 | 31045 ft | 433 kts | 274° |
| 2026-05-05 05:30 | 53.62986 | -3.99515 | 31050 ft | 444 kts | 274° |
| 2026-05-05 05:30 | 53.63185 | -4.04784 | 31051 ft | 456 kts | 274° |
| 2026-05-05 05:30 | 53.63390 | -4.10178 | 31049 ft | 467 kts | 274° |
| 2026-05-05 05:30 | 53.63605 | -4.15688 | 31050 ft | 477 kts | 274° |
| 2026-05-05 05:31 | 53.64037 | -4.27082 | 31054 ft | 496 kts | 274° |
| 2026-05-05 05:31 | 53.64471 | -4.38824 | 31056 ft | 506 kts | 274° |
| 2026-05-05 05:32 | 53.64902 | -4.50698 | 31056 ft | 509 kts | 274° |
| 2026-05-05 05:32 | 53.65316 | -4.62548 | 31057 ft | 509 kts | 273° |
| 2026-05-05 05:33 | 53.65716 | -4.74422 | 31056 ft | 507 kts | 273° |
| 2026-05-05 05:33 | 53.66106 | -4.86267 | 31062 ft | 506 kts | 273° |
| 2026-05-05 05:34 | 53.66493 | -4.98104 | 31059 ft | 506 kts | 273° |
| 2026-05-05 05:34 | 53.66864 | -5.09951 | 31063 ft | 505 kts | 273° |
| 2026-05-05 05:35 | 53.67226 | -5.21792 | 31067 ft | 505 kts | 272° |
| 2026-05-05 05:35 | 53.67564 | -5.33606 | 31068 ft | 504 kts | 272° |
| 2026-05-05 05:36 | 53.67909 | -5.45406 | 31065 ft | 504 kts | 275° |
| 2026-05-05 05:36 | 53.69358 | -5.56938 | 31067 ft | 504 kts | 286° |
| 2026-05-05 05:37 | 53.71446 | -5.68224 | 31069 ft | 504 kts | 288° |
| 2026-05-05 05:37 | 53.73626 | -5.79476 | 31070 ft | 504 kts | 288° |
| 2026-05-05 05:38 | 53.75792 | -5.90755 | 31069 ft | 504 kts | 287° |
| 2026-05-05 05:38 | 53.77926 | -6.02040 | 31069 ft | 504 kts | 287° |
| 2026-05-05 05:39 | 53.80039 | -6.13325 | 31070 ft | 504 kts | 287° |
| 2026-05-05 05:39 | 53.82131 | -6.24571 | 31070 ft | 504 kts | 287° |
| 2026-05-05 05:40 | 53.84226 | -6.35889 | 31067 ft | 503 kts | 286° |
| 2026-05-05 05:40 | 53.86301 | -6.47173 | 31068 ft | 501 kts | 286° |
| 2026-05-05 05:41 | 53.88352 | -6.58393 | 31527 ft | 493 kts | 286° |
| 2026-05-05 05:41 | 53.89358 | -6.63924 | 31922 ft | 489 kts | 286° |
| 2026-05-05 05:41 | 53.90357 | -6.69427 | 32312 ft | 487 kts | 286° |
| 2026-05-05 05:42 | 53.91346 | -6.74894 | 32729 ft | 484 kts | 286° |
| 2026-05-05 05:42 | 53.92327 | -6.80339 | 33130 ft | 482 kts | 286° |
| 2026-05-05 05:42 | 53.93302 | -6.85759 | 33539 ft | 479 kts | 286° |
| 2026-05-05 05:42 | 53.94271 | -6.91169 | 33954 ft | 477 kts | 286° |
| 2026-05-05 05:43 | 53.95231 | -6.96539 | 34329 ft | 475 kts | 286° |
| 2026-05-05 05:43 | 53.96184 | -7.01891 | 34769 ft | 471 kts | 286° |
| 2026-05-05 05:43 | 53.97126 | -7.07189 | 35234 ft | 467 kts | 286° |
| 2026-05-05 05:43 | 53.98058 | -7.12450 | 35709 ft | 462 kts | 286° |
| 2026-05-05 05:44 | 53.98977 | -7.17658 | 36194 ft | 458 kts | 286° |
| 2026-05-05 05:44 | 53.99885 | -7.22812 | 36689 ft | 453 kts | 286° |
| 2026-05-05 05:44 | 54.00783 | -7.27922 | 37100 ft | 450 kts | 286° |
| 2026-05-05 05:44 | 54.01673 | -7.33010 | 37482 ft | 447 kts | 286° |
| 2026-05-05 05:45 | 54.02556 | -7.38064 | 37879 ft | 444 kts | 286° |
| 2026-05-05 05:45 | 54.03432 | -7.43094 | 38268 ft | 441 kts | 286° |
| 2026-05-05 05:45 | 54.04298 | -7.48086 | 38668 ft | 438 kts | 286° |
| 2026-05-05 05:45 | 54.05154 | -7.53027 | 38976 ft | 434 kts | 286° |
| 2026-05-05 05:46 | 54.06864 | -7.62947 | 39086 ft | 440 kts | 286° |
| 2026-05-05 05:46 | 54.08600 | -7.73068 | 39083 ft | 449 kts | 286° |
| 2026-05-05 05:47 | 54.10348 | -7.83319 | 39089 ft | 458 kts | 286° |
| 2026-05-05 05:47 | 54.12132 | -7.93842 | 39091 ft | 466 kts | 286° |
| 2026-05-05 05:48 | 54.13935 | -8.04543 | 39086 ft | 473 kts | 286° |
| 2026-05-05 05:48 | 54.15758 | -8.15426 | 39102 ft | 480 kts | 286° |
| 2026-05-05 05:49 | 54.17586 | -8.26413 | 39093 ft | 483 kts | 285° |
| 2026-05-05 05:49 | 54.19413 | -8.37465 | 39099 ft | 484 kts | 285° |
| 2026-05-05 05:50 | 54.21232 | -8.48532 | 39107 ft | 484 kts | 285° |
| 2026-05-05 05:50 | 54.23037 | -8.59594 | 39103 ft | 483 kts | 285° |
| 2026-05-05 05:51 | 54.24831 | -8.70662 | 39108 ft | 483 kts | 285° |
| 2026-05-05 05:51 | 54.26616 | -8.81743 | 39111 ft | 483 kts | 285° |
| 2026-05-05 05:52 | 54.28391 | -8.92833 | 39107 ft | 483 kts | 285° |
| 2026-05-05 05:52 | 54.30144 | -9.03863 | 39115 ft | 483 kts | 285° |
| 2026-05-05 05:53 | 54.31899 | -9.14974 | 39113 ft | 483 kts | 285° |
| 2026-05-05 05:53 | 54.33655 | -9.26169 | 39112 ft | 484 kts | 285° |
| 2026-05-05 05:54 | 54.35379 | -9.37232 | 39116 ft | 484 kts | 285° |
| 2026-05-05 05:54 | 54.37104 | -9.48377 | 39119 ft | 484 kts | 284° |
| 2026-05-05 05:55 | 54.38821 | -9.59546 | 39124 ft | 483 kts | 284° |
| 2026-05-05 05:55 | 54.40524 | -9.70701 | 39126 ft | 483 kts | 284° |
| 2026-05-05 05:56 | 54.42221 | -9.81896 | 39120 ft | 484 kts | 284° |
| 2026-05-05 05:56 | 54.43906 | -9.93083 | 39134 ft | 484 kts | 284° |
| 2026-05-05 05:57 | 54.45665 | -10.04247 | 39131 ft | 484 kts | 289° |
| 2026-05-05 05:57 | 54.48695 | -10.14451 | 39127 ft | 484 kts | 306° |
| 2026-05-05 05:58 | 54.53186 | -10.23212 | 39134 ft | 486 kts | 313° |
| 2026-05-05 05:58 | 54.57894 | -10.31450 | 39136 ft | 486 kts | 314° |
| 2026-05-05 05:59 | 54.62653 | -10.39696 | 39139 ft | 484 kts | 314° |
| 2026-05-05 05:59 | 54.67383 | -10.47990 | 39139 ft | 484 kts | 313° |
| 2026-05-05 06:00 | 54.72088 | -10.56318 | 39146 ft | 484 kts | 313° |
| 2026-05-05 06:00 | 54.76782 | -10.64667 | 39147 ft | 483 kts | 313° |
| 2026-05-05 06:01 | 54.81466 | -10.73029 | 39148 ft | 484 kts | 313° |
| 2026-05-05 06:01 | 54.86155 | -10.81425 | 39148 ft | 484 kts | 313° |
| 2026-05-05 06:02 | 54.90833 | -10.89831 | 39149 ft | 484 kts | 313° |
| 2026-05-05 06:02 | 54.95504 | -10.98255 | 39145 ft | 484 kts | 313° |
| 2026-05-05 06:03 | 55.00165 | -11.06691 | 39149 ft | 483 kts | 313° |
| 2026-05-05 06:03 | 55.04038 | -11.13722 | 39156 ft | 483 kts | 313° |
| 2026-05-05 06:04 | 55.08686 | -11.22190 | 39161 ft | 482 kts | 313° |
| 2026-05-05 06:04 | 55.14069 | -11.32035 | 39154 ft | 482 kts | 313° |
| 2026-05-05 06:05 | 55.17948 | -11.39153 | 39157 ft | 482 kts | 313° |
| 2026-05-05 06:05 | 55.22570 | -11.47665 | 39155 ft | 482 kts | 312° |
| 2026-05-05 06:06 | 55.27185 | -11.56193 | 39162 ft | 482 kts | 312° |
| 2026-05-05 06:06 | 55.31793 | -11.64740 | 39160 ft | 481 kts | 312° |
| 2026-05-05 06:07 | 55.36358 | -11.73239 | 39162 ft | 481 kts | 312° |
| 2026-05-05 06:07 | 55.40950 | -11.81819 | 39163 ft | 481 kts | 312° |
| 2026-05-05 06:08 | 55.45537 | -11.90419 | 39167 ft | 481 kts | 312° |
| 2026-05-05 06:08 | 55.50115 | -11.99035 | 39168 ft | 481 kts | 312° |
| 2026-05-05 06:09 | 55.54685 | -12.07667 | 39168 ft | 481 kts | 312° |
| 2026-05-05 06:09 | 55.59253 | -12.16326 | 39171 ft | 481 kts | 312° |
| 2026-05-05 06:10 | 55.63811 | -12.24999 | 39170 ft | 481 kts | 312° |
| 2026-05-05 06:10 | 55.68363 | -12.33690 | 39177 ft | 481 kts | 311° |
| 2026-05-05 06:11 | 55.72906 | -12.42397 | 39171 ft | 481 kts | 311° |
| 2026-05-05 06:11 | 55.77444 | -12.51129 | 39176 ft | 481 kts | 311° |
| 2026-05-05 06:12 | 55.81975 | -12.59878 | 39181 ft | 481 kts | 311° |
| 2026-05-05 06:12 | 55.86500 | -12.68646 | 39181 ft | 481 kts | 311° |
| 2026-05-05 06:13 | 55.91012 | -12.77424 | 39181 ft | 481 kts | 311° |
| 2026-05-05 06:13 | 55.95522 | -12.86230 | 39181 ft | 480 kts | 311° |
| 2026-05-05 06:14 | 55.99990 | -12.94987 | 39184 ft | 480 kts | 311° |
| 2026-05-05 06:14 | 56.04480 | -13.03818 | 39183 ft | 480 kts | 311° |
| 2026-05-05 06:15 | 56.08966 | -13.12676 | 39184 ft | 480 kts | 311° |
| 2026-05-05 06:15 | 56.13443 | -13.21547 | 39187 ft | 480 kts | 311° |
| 2026-05-05 06:16 | 56.17908 | -13.30429 | 39185 ft | 479 kts | 311° |
| 2026-05-05 06:16 | 56.22360 | -13.39319 | 39192 ft | 479 kts | 311° |
| 2026-05-05 06:17 | 56.26809 | -13.48235 | 39193 ft | 479 kts | 310° |
| 2026-05-05 06:17 | 56.31252 | -13.57174 | 39193 ft | 479 kts | 310° |
| 2026-05-05 06:18 | 56.35685 | -13.66126 | 39197 ft | 479 kts | 310° |
| 2026-05-05 06:18 | 56.40110 | -13.75097 | 39196 ft | 478 kts | 310° |
| 2026-05-05 06:19 | 56.44529 | -13.84087 | 39194 ft | 478 kts | 310° |
| 2026-05-05 06:19 | 56.48942 | -13.93102 | 39196 ft | 478 kts | 310° |
| 2026-05-05 06:20 | 56.53320 | -14.02079 | 39194 ft | 478 kts | 310° |
| 2026-05-05 06:20 | 56.57717 | -14.11128 | 39197 ft | 478 kts | 310° |
| 2026-05-05 06:21 | 56.62109 | -14.20202 | 39201 ft | 478 kts | 310° |
| 2026-05-05 06:21 | 56.66488 | -14.29283 | 39201 ft | 478 kts | 310° |
| 2026-05-05 06:22 | 56.70861 | -14.38387 | 39205 ft | 478 kts | 310° |
| 2026-05-05 06:22 | 56.75223 | -14.47504 | 39206 ft | 478 kts | 310° |
| 2026-05-05 06:23 | 56.79586 | -14.56657 | 39204 ft | 478 kts | 310° |
| 2026-05-05 06:23 | 56.83905 | -14.65753 | 39209 ft | 477 kts | 310° |
| 2026-05-05 06:24 | 56.88272 | -14.74986 | 39208 ft | 477 kts | 309° |
| 2026-05-05 06:24 | 56.92569 | -14.84107 | 39212 ft | 477 kts | 309° |
| 2026-05-05 06:25 | 56.96899 | -14.93332 | 39210 ft | 477 kts | 309° |
| 2026-05-05 06:25 | 57.00618 | -15.03356 | 39217 ft | 476 kts | 295° |
| 2026-05-05 06:26 | 57.03318 | -15.14435 | 39219 ft | 475 kts | 292° |
| 2026-05-05 06:26 | 57.05824 | -15.25671 | 39219 ft | 475 kts | 292° |
| 2026-05-05 06:27 | 57.09533 | -15.42572 | 39219 ft | 475 kts | 292° |
| 2026-05-05 06:28 | 57.12013 | -15.53847 | 39222 ft | 475 kts | 292° |
| 2026-05-05 06:28 | 57.14489 | -15.65129 | 39224 ft | 475 kts | 292° |
| 2026-05-05 06:29 | 57.16959 | -15.76440 | 39216 ft | 476 kts | 292° |
| 2026-05-05 06:29 | 57.19415 | -15.87754 | 39223 ft | 476 kts | 291° |
| 2026-05-05 06:30 | 57.21861 | -15.99086 | 39230 ft | 475 kts | 291° |
| 2026-05-05 06:30 | 57.24295 | -16.10423 | 39231 ft | 475 kts | 291° |
| 2026-05-05 06:31 | 57.26703 | -16.21704 | 39236 ft | 475 kts | 291° |
| 2026-05-05 06:31 | 57.29119 | -16.33082 | 39227 ft | 476 kts | 291° |
| 2026-05-05 06:32 | 57.31527 | -16.44489 | 39233 ft | 476 kts | 291° |
| 2026-05-05 06:32 | 57.33925 | -16.55910 | 39232 ft | 476 kts | 291° |
| 2026-05-05 06:33 | 57.36310 | -16.67337 | 39232 ft | 476 kts | 291° |
| 2026-05-05 06:33 | 57.38690 | -16.78799 | 39237 ft | 476 kts | 291° |
| 2026-05-05 06:34 | 57.41056 | -16.90262 | 39237 ft | 476 kts | 291° |
| 2026-05-05 06:34 | 57.43414 | -17.01752 | 39238 ft | 476 kts | 291° |
| 2026-05-05 06:35 | 57.45765 | -17.13269 | 39247 ft | 477 kts | 291° |
| 2026-05-05 06:35 | 57.48104 | -17.24799 | 39250 ft | 477 kts | 291° |
| 2026-05-05 06:36 | 57.50434 | -17.36349 | 39256 ft | 477 kts | 291° |
| 2026-05-05 06:36 | 57.52754 | -17.47918 | 39243 ft | 477 kts | 290° |
| 2026-05-05 06:37 | 57.55065 | -17.59509 | 39259 ft | 477 kts | 290° |
| 2026-05-05 06:37 | 57.57366 | -17.71117 | 39264 ft | 477 kts | 290° |
| 2026-05-05 06:38 | 57.59654 | -17.82730 | 39260 ft | 478 kts | 290° |
| 2026-05-05 06:38 | 57.61936 | -17.94379 | 39260 ft | 478 kts | 290° |
| 2026-05-05 06:39 | 57.64208 | -18.06046 | 39266 ft | 478 kts | 290° |
| 2026-05-05 06:39 | 57.66470 | -18.17735 | 39270 ft | 478 kts | 290° |
| 2026-05-05 06:40 | 57.68722 | -18.29439 | 39270 ft | 478 kts | 290° |
| 2026-05-05 06:40 | 57.70946 | -18.41066 | 39279 ft | 478 kts | 290° |
| 2026-05-05 06:41 | 57.73177 | -18.52803 | 39269 ft | 479 kts | 290° |
| 2026-05-05 06:41 | 57.75398 | -18.64563 | 39275 ft | 479 kts | 290° |
| 2026-05-05 06:42 | 57.77609 | -18.76334 | 39278 ft | 479 kts | 290° |
| 2026-05-05 06:42 | 57.79811 | -18.88135 | 39280 ft | 479 kts | 290° |
| 2026-05-05 06:43 | 57.82002 | -18.99953 | 39278 ft | 479 kts | 289° |
| 2026-05-05 06:43 | 57.84182 | -19.11781 | 39280 ft | 480 kts | 289° |
| 2026-05-05 06:44 | 57.86352 | -19.23627 | 39288 ft | 480 kts | 289° |
| 2026-05-05 06:44 | 57.88508 | -19.35477 | 39289 ft | 479 kts | 289° |
| 2026-05-05 06:45 | 57.90654 | -19.47342 | 39281 ft | 480 kts | 289° |
| 2026-05-05 06:45 | 57.92790 | -19.59230 | 39292 ft | 479 kts | 289° |
| 2026-05-05 06:46 | 57.94915 | -19.71129 | 39294 ft | 480 kts | 289° |
| 2026-05-05 06:46 | 57.97028 | -19.83039 | 39285 ft | 480 kts | 289° |
| 2026-05-05 06:47 | 57.99121 | -19.94985 | 39283 ft | 480 kts | 287° |
| 2026-05-05 06:47 | 58.00277 | -20.07363 | 39298 ft | 481 kts | 277° |
| 2026-05-05 06:48 | 58.00835 | -20.19965 | 39304 ft | 482 kts | 275° |
| 2026-05-05 06:48 | 58.01278 | -20.32582 | 39296 ft | 482 kts | 275° |
| 2026-05-05 06:49 | 58.01711 | -20.45196 | 39300 ft | 482 kts | 275° |
| 2026-05-05 06:49 | 58.02149 | -20.57815 | 39301 ft | 482 kts | 275° |
| 2026-05-05 06:50 | 58.02581 | -20.70437 | 39305 ft | 482 kts | 275° |
| 2026-05-05 06:50 | 58.03003 | -20.83082 | 39306 ft | 483 kts | 275° |
| 2026-05-05 06:51 | 58.03343 | -20.93590 | 39306 ft | 483 kts | 275° |
| 2026-05-05 06:51 | 58.03804 | -21.08307 | 39309 ft | 483 kts | 275° |
| 2026-05-05 06:52 | 58.04126 | -21.18913 | 39301 ft | 483 kts | 275° |
| 2026-05-05 06:52 | 58.04498 | -21.31560 | 39301 ft | 483 kts | 275° |
| 2026-05-05 06:53 | 58.04855 | -21.44145 | 39312 ft | 483 kts | 274° |
| 2026-05-05 06:53 | 58.05205 | -21.56894 | 39325 ft | 483 kts | 274° |
| 2026-05-05 06:54 | 58.05537 | -21.69480 | 39317 ft | 483 kts | 274° |
| 2026-05-05 06:54 | 58.05859 | -21.82150 | 39320 ft | 483 kts | 274° |
| 2026-05-05 06:55 | 58.06169 | -21.94807 | 39316 ft | 483 kts | 274° |
| 2026-05-05 06:55 | 58.06466 | -22.07485 | 39315 ft | 483 kts | 274° |
| 2026-05-05 06:56 | 58.06750 | -22.20158 | 39315 ft | 483 kts | 274° |
| 2026-05-05 06:56 | 58.07022 | -22.32848 | 39317 ft | 483 kts | 274° |
| 2026-05-05 06:57 | 58.07282 | -22.45525 | 39322 ft | 483 kts | 274° |
| 2026-05-05 06:57 | 58.07529 | -22.58222 | 39319 ft | 483 kts | 274° |
| 2026-05-05 06:58 | 58.07762 | -22.70919 | 39309 ft | 483 kts | 274° |
| 2026-05-05 06:58 | 58.07984 | -22.83635 | 39320 ft | 484 kts | 274° |
| 2026-05-05 06:59 | 58.08194 | -22.96343 | 39316 ft | 484 kts | 274° |
| 2026-05-05 06:59 | 58.08390 | -23.09065 | 39320 ft | 484 kts | 274° |
| 2026-05-05 07:00 | 58.08574 | -23.21784 | 39323 ft | 484 kts | 274° |
| 2026-05-05 07:00 | 58.08745 | -23.34478 | 39303 ft | 483 kts | 274° |
| 2026-05-05 07:01 | 58.08903 | -23.47185 | 39319 ft | 484 kts | 274° |
| 2026-05-05 07:01 | 58.09049 | -23.59900 | 39319 ft | 484 kts | 273° |
| 2026-05-05 07:02 | 58.09183 | -23.72616 | 39326 ft | 484 kts | 273° |
| 2026-05-05 07:02 | 58.09303 | -23.85342 | 39315 ft | 484 kts | 273° |
| 2026-05-05 07:03 | 58.09411 | -23.98062 | 39319 ft | 484 kts | 273° |
| 2026-05-05 07:03 | 58.09506 | -24.10790 | 39319 ft | 485 kts | 273° |
| 2026-05-05 07:04 | 58.09589 | -24.23553 | 39320 ft | 485 kts | 273° |
| 2026-05-05 07:04 | 58.09659 | -24.36304 | 39320 ft | 485 kts | 273° |
| 2026-05-05 07:05 | 58.09716 | -24.48968 | 39324 ft | 485 kts | 273° |
| 2026-05-05 07:05 | 58.09760 | -24.61729 | 39325 ft | 485 kts | 273° |
| 2026-05-05 07:06 | 58.09792 | -24.74471 | 39317 ft | 485 kts | 273° |
| 2026-05-05 07:06 | 58.09811 | -24.87236 | 39320 ft | 486 kts | 273° |
| 2026-05-05 07:07 | 58.09818 | -25.00005 | 39317 ft | 486 kts | 273° |
| 2026-05-05 07:07 | 58.09811 | -25.12782 | 39319 ft | 486 kts | 272° |
| 2026-05-05 07:08 | 58.09792 | -25.25571 | 39319 ft | 486 kts | 272° |
| 2026-05-05 07:08 | 58.09760 | -25.38359 | 39308 ft | 486 kts | 272° |
| 2026-05-05 07:09 | 58.09715 | -25.51149 | 39319 ft | 487 kts | 272° |
| 2026-05-05 07:09 | 58.09657 | -25.63954 | 39319 ft | 487 kts | 272° |
| 2026-05-05 07:10 | 58.09587 | -25.76775 | 39318 ft | 487 kts | 272° |
| 2026-05-05 07:10 | 58.09503 | -25.89588 | 39320 ft | 487 kts | 272° |
| 2026-05-05 07:11 | 58.09406 | -26.02390 | 39319 ft | 487 kts | 272° |
| 2026-05-05 07:11 | 58.09297 | -26.15186 | 39320 ft | 487 kts | 272° |
| 2026-05-05 07:12 | 58.09177 | -26.27904 | 39324 ft | 487 kts | 272° |
| 2026-05-05 07:12 | 58.09042 | -26.40700 | 39322 ft | 487 kts | 272° |
| 2026-05-05 07:13 | 58.08895 | -26.53501 | 39327 ft | 487 kts | 272° |
| 2026-05-05 07:13 | 58.08734 | -26.66311 | 39328 ft | 487 kts | 272° |
| 2026-05-05 07:14 | 58.08561 | -26.79106 | 39326 ft | 488 kts | 272° |
| 2026-05-05 07:14 | 58.08374 | -26.91939 | 39330 ft | 488 kts | 272° |
| 2026-05-05 07:15 | 58.08175 | -27.04768 | 39330 ft | 488 kts | 271° |
| 2026-05-05 07:15 | 58.07963 | -27.17600 | 39330 ft | 488 kts | 271° |
| 2026-05-05 07:16 | 58.07737 | -27.30425 | 39330 ft | 488 kts | 271° |
| 2026-05-05 07:16 | 58.07499 | -27.43243 | 39319 ft | 488 kts | 271° |
| 2026-05-05 07:17 | 58.07248 | -27.56068 | 39335 ft | 488 kts | 271° |
| 2026-05-05 07:17 | 58.06986 | -27.68805 | 39330 ft | 488 kts | 271° |
| 2026-05-05 07:18 | 58.06708 | -27.81705 | 39332 ft | 488 kts | 271° |
| 2026-05-05 07:18 | 58.06418 | -27.94527 | 39333 ft | 488 kts | 271° |
| 2026-05-05 07:19 | 58.06115 | -28.07352 | 39310 ft | 489 kts | 271° |
| 2026-05-05 07:19 | 58.05800 | -28.20168 | 39335 ft | 488 kts | 271° |
| 2026-05-05 07:20 | 58.05474 | -28.32896 | 39336 ft | 489 kts | 271° |
| 2026-05-05 07:20 | 58.05132 | -28.45714 | 39329 ft | 489 kts | 271° |
| 2026-05-05 07:21 | 58.04778 | -28.58530 | 39329 ft | 489 kts | 271° |
| 2026-05-05 07:21 | 58.04412 | -28.71338 | 39334 ft | 489 kts | 271° |
| 2026-05-05 07:22 | 58.04031 | -28.84150 | 39328 ft | 488 kts | 271° |
| 2026-05-05 07:22 | 58.03639 | -28.96906 | 39327 ft | 486 kts | 271° |
| 2026-05-05 07:23 | 58.03236 | -29.09643 | 39326 ft | 486 kts | 271° |
| 2026-05-05 07:23 | 58.02821 | -29.22368 | 39328 ft | 486 kts | 270° |
| 2026-05-05 07:24 | 58.02393 | -29.35097 | 39327 ft | 486 kts | 270° |
| 2026-05-05 07:24 | 58.01951 | -29.47818 | 39316 ft | 486 kts | 270° |
| 2026-05-05 07:25 | 58.01497 | -29.60522 | 39325 ft | 485 kts | 270° |
| 2026-05-05 07:25 | 58.01032 | -29.73207 | 39316 ft | 485 kts | 270° |
| 2026-05-05 07:26 | 58.00554 | -29.85893 | 39327 ft | 485 kts | 270° |
| 2026-05-05 07:26 | 58.00122 | -29.98571 | 39325 ft | 483 kts | 274° |
| 2026-05-05 07:27 | 58.00415 | -30.11080 | 39298 ft | 480 kts | 278° |
| 2026-05-05 07:27 | 58.00880 | -30.23605 | 39325 ft | 478 kts | 278° |
| 2026-05-05 07:28 | 58.01364 | -30.36105 | 39324 ft | 478 kts | 278° |
| 2026-05-05 07:28 | 58.01825 | -30.48609 | 39320 ft | 478 kts | 278° |
| 2026-05-05 07:29 | 58.02265 | -30.61115 | 39321 ft | 478 kts | 278° |
| 2026-05-05 07:29 | 58.02690 | -30.73619 | 39318 ft | 478 kts | 278° |
| 2026-05-05 07:30 | 58.03102 | -30.86141 | 39298 ft | 478 kts | 277° |
| 2026-05-05 07:30 | 58.03697 | -31.04898 | 39325 ft | 477 kts | 277° |
| 2026-05-05 07:31 | 58.04078 | -31.17388 | 39317 ft | 477 kts | 277° |
| 2026-05-05 07:31 | 58.04447 | -31.29868 | 39314 ft | 475 kts | 277° |
| 2026-05-05 07:32 | 58.04802 | -31.42306 | 39315 ft | 474 kts | 277° |
| 2026-05-05 07:32 | 58.05142 | -31.54656 | 39323 ft | 474 kts | 277° |
| 2026-05-05 07:33 | 58.05473 | -31.67073 | 39323 ft | 473 kts | 277° |
| 2026-05-05 07:33 | 58.05792 | -31.79495 | 39308 ft | 473 kts | 276° |
| 2026-05-05 07:34 | 58.06097 | -31.91892 | 39323 ft | 473 kts | 276° |
| 2026-05-05 07:34 | 58.06391 | -32.04297 | 39324 ft | 473 kts | 276° |
| 2026-05-05 07:35 | 58.06673 | -32.16713 | 39319 ft | 473 kts | 276° |
| 2026-05-05 07:35 | 58.06942 | -32.29121 | 39319 ft | 473 kts | 276° |
| 2026-05-05 07:36 | 58.07200 | -32.41523 | 39311 ft | 472 kts | 275° |
| 2026-05-05 07:36 | 58.07445 | -32.53922 | 39317 ft | 472 kts | 275° |
| 2026-05-05 07:37 | 58.07640 | -32.64219 | 39314 ft | 472 kts | 275° |
| 2026-05-05 07:37 | 58.07862 | -32.76617 | 39312 ft | 472 kts | 275° |
| 2026-05-05 07:38 | 58.08074 | -32.89018 | 39316 ft | 472 kts | 275° |
| 2026-05-05 07:38 | 58.08272 | -33.01417 | 39309 ft | 472 kts | 275° |
| 2026-05-05 07:39 | 58.08460 | -33.13824 | 39311 ft | 472 kts | 275° |
| 2026-05-05 07:39 | 58.08634 | -33.26232 | 39306 ft | 472 kts | 275° |
| 2026-05-05 07:40 | 58.08797 | -33.38649 | 39305 ft | 472 kts | 275° |
| 2026-05-05 07:40 | 58.08949 | -33.51076 | 39307 ft | 473 kts | 274° |
| 2026-05-05 07:41 | 58.09088 | -33.63503 | 39305 ft | 473 kts | 274° |
| 2026-05-05 07:41 | 58.09214 | -33.75939 | 39306 ft | 473 kts | 274° |
| 2026-05-05 07:42 | 58.09330 | -33.88368 | 39301 ft | 473 kts | 274° |
| 2026-05-05 07:42 | 58.09433 | -34.00822 | 39306 ft | 474 kts | 274° |
| 2026-05-05 07:43 | 58.09523 | -34.13279 | 39306 ft | 474 kts | 274° |
| 2026-05-05 07:43 | 58.09601 | -34.25745 | 39303 ft | 474 kts | 273° |
| 2026-05-05 07:44 | 58.09667 | -34.38212 | 39303 ft | 474 kts | 273° |
| 2026-05-05 07:44 | 58.09722 | -34.50683 | 39303 ft | 475 kts | 273° |
| 2026-05-05 07:45 | 58.09764 | -34.63143 | 39295 ft | 475 kts | 272° |
| 2026-05-05 07:45 | 58.09794 | -34.75656 | 39300 ft | 476 kts | 272° |
| 2026-05-05 07:46 | 58.09812 | -34.88178 | 39301 ft | 477 kts | 272° |
| 2026-05-05 07:46 | 58.09817 | -35.00720 | 39300 ft | 477 kts | 272° |
| 2026-05-05 07:47 | 58.09810 | -35.13249 | 39295 ft | 477 kts | 272° |
| 2026-05-05 07:47 | 58.09791 | -35.25699 | 39295 ft | 477 kts | 272° |
| 2026-05-05 07:48 | 58.09760 | -35.38309 | 39288 ft | 477 kts | 271° |
| 2026-05-05 07:48 | 58.09716 | -35.50786 | 39292 ft | 478 kts | 271° |
| 2026-05-05 07:49 | 58.09661 | -35.63365 | 39293 ft | 479 kts | 271° |
| 2026-05-05 07:49 | 58.09592 | -35.75959 | 39292 ft | 479 kts | 271° |
| 2026-05-05 07:50 | 58.09510 | -35.88555 | 39293 ft | 479 kts | 271° |
| 2026-05-05 07:50 | 58.09416 | -36.01151 | 39287 ft | 479 kts | 271° |
| 2026-05-05 07:51 | 58.09310 | -36.13766 | 39283 ft | 480 kts | 270° |
| 2026-05-05 07:51 | 58.09192 | -36.26380 | 39284 ft | 480 kts | 270° |
| 2026-05-05 07:52 | 58.09061 | -36.39003 | 39284 ft | 480 kts | 270° |
| 2026-05-05 07:52 | 58.08917 | -36.51630 | 39284 ft | 481 kts | 270° |
| 2026-05-05 07:53 | 58.08761 | -36.64254 | 39280 ft | 481 kts | 270° |
| 2026-05-05 07:53 | 58.08592 | -36.76892 | 39279 ft | 481 kts | 270° |
| 2026-05-05 07:54 | 58.08411 | -36.89521 | 39272 ft | 481 kts | 269° |
| 2026-05-05 07:54 | 58.08217 | -37.02169 | 39273 ft | 481 kts | 269° |
| 2026-05-05 07:55 | 58.08010 | -37.14805 | 39270 ft | 481 kts | 269° |
| 2026-05-05 07:55 | 58.07792 | -37.27385 | 39268 ft | 481 kts | 269° |
| 2026-05-05 07:56 | 58.07559 | -37.40105 | 39268 ft | 481 kts | 269° |
| 2026-05-05 07:56 | 58.07316 | -37.52664 | 39265 ft | 481 kts | 269° |
| 2026-05-05 07:57 | 58.07060 | -37.65315 | 39266 ft | 482 kts | 269° |
| 2026-05-05 07:57 | 58.06790 | -37.77967 | 39259 ft | 482 kts | 268° |
| 2026-05-05 07:58 | 58.06507 | -37.90643 | 39259 ft | 483 kts | 268° |
| 2026-05-05 07:58 | 58.06212 | -38.03319 | 39253 ft | 483 kts | 268° |
| 2026-05-05 07:59 | 58.05904 | -38.15995 | 39252 ft | 483 kts | 268° |
| 2026-05-05 07:59 | 58.05584 | -38.28648 | 39252 ft | 483 kts | 268° |
| 2026-05-05 08:00 | 58.05252 | -38.41299 | 39249 ft | 483 kts | 268° |
| 2026-05-05 08:00 | 58.04906 | -38.53965 | 39246 ft | 483 kts | 268° |
| 2026-05-05 08:01 | 58.04548 | -38.66618 | 39237 ft | 483 kts | 267° |
| 2026-05-05 08:01 | 58.04180 | -38.79199 | 39240 ft | 483 kts | 267° |
| 2026-05-05 08:02 | 58.03797 | -38.91857 | 39239 ft | 483 kts | 267° |
| 2026-05-05 08:02 | 58.03401 | -39.04527 | 39227 ft | 484 kts | 267° |
| 2026-05-05 08:03 | 58.02992 | -39.17224 | 39227 ft | 484 kts | 266° |
| 2026-05-05 08:03 | 58.02569 | -39.29927 | 39221 ft | 486 kts | 266° |
| 2026-05-05 08:04 | 58.02133 | -39.42635 | 39217 ft | 485 kts | 266° |
| 2026-05-05 08:04 | 58.01684 | -39.55354 | 39207 ft | 486 kts | 266° |
| 2026-05-05 08:05 | 58.01224 | -39.68053 | 39209 ft | 486 kts | 266° |
| 2026-05-05 08:05 | 58.00750 | -39.80767 | 39210 ft | 486 kts | 266° |
| 2026-05-05 08:06 | 58.00262 | -39.93522 | 39195 ft | 489 kts | 265° |
| 2026-05-05 08:06 | 57.99727 | -40.06331 | 39195 ft | 490 kts | 264° |
| 2026-05-05 08:07 | 57.98958 | -40.19095 | 39195 ft | 490 kts | 262° |
| 2026-05-05 08:07 | 57.98128 | -40.31858 | 39195 ft | 490 kts | 263° |
| 2026-05-05 08:08 | 57.97323 | -40.44536 | 39184 ft | 490 kts | 263° |
| 2026-05-05 08:08 | 57.96521 | -40.57298 | 39184 ft | 491 kts | 263° |
| 2026-05-05 08:09 | 57.95712 | -40.70051 | 39170 ft | 491 kts | 263° |
| 2026-05-05 08:09 | 57.94889 | -40.82811 | 39170 ft | 491 kts | 262° |
| 2026-05-05 08:10 | 57.94053 | -40.95559 | 39170 ft | 491 kts | 262° |
| 2026-05-05 08:10 | 57.93203 | -41.08300 | 39159 ft | 491 kts | 262° |
| 2026-05-05 08:11 | 57.92339 | -41.21049 | 39159 ft | 491 kts | 262° |
| 2026-05-05 08:11 | 57.91464 | -41.33795 | 39148 ft | 493 kts | 261° |
| 2026-05-05 08:12 | 57.90566 | -41.46642 | 39146 ft | 497 kts | 261° |
| 2026-05-05 08:12 | 57.89653 | -41.59537 | 39129 ft | 497 kts | 260° |
| 2026-05-05 08:13 | 57.88727 | -41.72414 | 39130 ft | 497 kts | 261° |
| 2026-05-05 08:13 | 57.87787 | -41.85300 | 39116 ft | 497 kts | 261° |
| 2026-05-05 08:14 | 57.86834 | -41.98169 | 39136 ft | 498 kts | 260° |
| 2026-05-05 08:14 | 57.85869 | -42.11016 | 39114 ft | 502 kts | 259° |
| 2026-05-05 08:15 | 57.84877 | -42.24044 | 39096 ft | 505 kts | 260° |
| 2026-05-05 08:15 | 57.83869 | -42.37113 | 39098 ft | 505 kts | 259° |
| 2026-05-05 08:16 | 57.82848 | -42.50161 | 39080 ft | 505 kts | 259° |
| 2026-05-05 08:16 | 57.81816 | -42.63193 | 39080 ft | 505 kts | 259° |
| 2026-05-05 08:17 | 57.80768 | -42.76248 | 39069 ft | 507 kts | 259° |
| 2026-05-05 08:17 | 57.79701 | -42.89334 | 39064 ft | 509 kts | 258° |
| 2026-05-05 08:18 | 57.78618 | -43.02447 | 39047 ft | 509 kts | 258° |
| 2026-05-05 08:18 | 57.77520 | -43.15573 | 39051 ft | 509 kts | 258° |
| 2026-05-05 08:19 | 57.76411 | -43.28670 | 39029 ft | 510 kts | 258° |
| 2026-05-05 08:19 | 57.75286 | -43.41787 | 39038 ft | 510 kts | 257° |
| 2026-05-05 08:20 | 57.74152 | -43.54826 | 39010 ft | 512 kts | 257° |
| 2026-05-05 08:20 | 57.72994 | -43.67990 | 39011 ft | 512 kts | 257° |
| 2026-05-05 08:21 | 57.71825 | -43.81128 | 38990 ft | 512 kts | 257° |
| 2026-05-05 08:21 | 57.70642 | -43.94255 | 38988 ft | 512 kts | 257° |
| 2026-05-05 08:22 | 57.69444 | -44.07375 | 38991 ft | 512 kts | 257° |
| 2026-05-05 08:22 | 57.68231 | -44.20513 | 38977 ft | 514 kts | 256° |
| 2026-05-05 08:23 | 57.67207 | -44.31473 | 38970 ft | 516 kts | 256° |
| 2026-05-05 08:23 | 57.65960 | -44.44692 | 38955 ft | 516 kts | 256° |
| 2026-05-05 08:24 | 57.64701 | -44.57892 | 38956 ft | 516 kts | 256° |
| 2026-05-05 08:24 | 57.63432 | -44.71033 | 38937 ft | 516 kts | 256° |
| 2026-05-05 08:25 | 57.62142 | -44.84240 | 38939 ft | 518 kts | 256° |
| 2026-05-05 08:25 | 57.60831 | -44.97486 | 38916 ft | 520 kts | 256° |
| 2026-05-05 08:26 | 57.59505 | -45.10764 | 38913 ft | 521 kts | 255° |
| 2026-05-05 08:26 | 57.58165 | -45.24030 | 38899 ft | 521 kts | 255° |
| 2026-05-05 08:27 | 57.56819 | -45.37214 | 38907 ft | 521 kts | 255° |
| 2026-05-05 08:27 | 57.55446 | -45.50507 | 38905 ft | 522 kts | 255° |
| 2026-05-05 08:28 | 57.54059 | -45.63789 | 38881 ft | 523 kts | 255° |
| 2026-05-05 08:28 | 57.52656 | -45.77080 | 38864 ft | 524 kts | 255° |
| 2026-05-05 08:29 | 57.51237 | -45.90386 | 38868 ft | 524 kts | 255° |
| 2026-05-05 08:30 | 57.49085 | -46.10296 | 38849 ft | 524 kts | 254° |
| 2026-05-05 08:30 | 57.47630 | -46.23576 | 38857 ft | 525 kts | 255° |
| 2026-05-05 08:31 | 57.46155 | -46.36895 | 38841 ft | 528 kts | 254° |
| 2026-05-05 08:31 | 57.44661 | -46.50265 | 38836 ft | 529 kts | 254° |
| 2026-05-05 08:32 | 57.43149 | -46.63656 | 38825 ft | 530 kts | 254° |
| 2026-05-05 08:32 | 57.41624 | -46.77022 | 38823 ft | 530 kts | 254° |
| 2026-05-05 08:33 | 57.40084 | -46.90388 | 38841 ft | 530 kts | 254° |
| 2026-05-05 08:33 | 57.38524 | -47.03779 | 38812 ft | 532 kts | 254° |
| 2026-05-05 08:34 | 57.36946 | -47.17200 | 38812 ft | 533 kts | 254° |
| 2026-05-05 08:34 | 57.35355 | -47.30606 | 38807 ft | 533 kts | 254° |
| 2026-05-05 08:35 | 57.33748 | -47.44006 | 38800 ft | 533 kts | 253° |
| 2026-05-05 08:35 | 57.32126 | -47.57405 | 38800 ft | 534 kts | 253° |
| 2026-05-05 08:36 | 57.30488 | -47.70796 | 38784 ft | 534 kts | 253° |
| 2026-05-05 08:36 | 57.28834 | -47.84203 | 38782 ft | 534 kts | 253° |
| 2026-05-05 08:37 | 57.27166 | -47.97586 | 38771 ft | 534 kts | 253° |
| 2026-05-05 08:37 | 57.25496 | -48.10870 | 38771 ft | 534 kts | 253° |
| 2026-05-05 08:38 | 57.23799 | -48.24239 | 38788 ft | 534 kts | 253° |
| 2026-05-05 08:38 | 57.22093 | -48.37557 | 38756 ft | 533 kts | 252° |
| 2026-05-05 08:39 | 57.20373 | -48.50855 | 38755 ft | 532 kts | 252° |
| 2026-05-05 08:39 | 57.18640 | -48.64135 | 38739 ft | 533 kts | 252° |
| 2026-05-05 08:40 | 57.16892 | -48.77410 | 38742 ft | 533 kts | 252° |
| 2026-05-05 08:40 | 57.15128 | -48.90686 | 38727 ft | 533 kts | 252° |
| 2026-05-05 08:41 | 57.13353 | -49.03931 | 38722 ft | 532 kts | 252° |
| 2026-05-05 08:41 | 57.11580 | -49.17056 | 38705 ft | 531 kts | 252° |
| 2026-05-05 08:42 | 57.09781 | -49.30248 | 38705 ft | 531 kts | 251° |
| 2026-05-05 08:42 | 57.07970 | -49.43409 | 38684 ft | 531 kts | 251° |
| 2026-05-05 08:43 | 57.06144 | -49.56567 | 38680 ft | 531 kts | 251° |
| 2026-05-05 08:43 | 57.04305 | -49.69705 | 38677 ft | 532 kts | 251° |
| 2026-05-05 08:44 | 57.02448 | -49.82869 | 38671 ft | 533 kts | 251° |
| 2026-05-05 08:44 | 57.00570 | -49.96032 | 38650 ft | 532 kts | 251° |
| 2026-05-05 08:45 | 56.97952 | -50.08622 | 38656 ft | 527 kts | 243° |
| 2026-05-05 08:45 | 56.95017 | -50.20906 | 38641 ft | 526 kts | 242° |
| 2026-05-05 08:46 | 56.92020 | -50.33143 | 38625 ft | 526 kts | 242° |
| 2026-05-05 08:46 | 56.89022 | -50.45358 | 38625 ft | 526 kts | 242° |
| 2026-05-05 08:47 | 56.86038 | -50.57499 | 38610 ft | 526 kts | 242° |
| 2026-05-05 08:47 | 56.83038 | -50.69661 | 38605 ft | 526 kts | 242° |
| 2026-05-05 08:48 | 56.80026 | -50.81801 | 38596 ft | 526 kts | 242° |
| 2026-05-05 08:48 | 56.76995 | -50.93952 | 38592 ft | 526 kts | 241° |
| 2026-05-05 08:49 | 56.73953 | -51.06075 | 38573 ft | 526 kts | 241° |
| 2026-05-05 08:49 | 56.70904 | -51.18162 | 38575 ft | 526 kts | 241° |
| 2026-05-05 08:50 | 56.67834 | -51.30267 | 38561 ft | 526 kts | 241° |
| 2026-05-05 08:50 | 56.64759 | -51.42324 | 38558 ft | 525 kts | 241° |
| 2026-05-05 08:51 | 56.61673 | -51.54358 | 38540 ft | 525 kts | 241° |
| 2026-05-05 08:51 | 56.58577 | -51.66370 | 38530 ft | 525 kts | 241° |
| 2026-05-05 08:52 | 56.55492 | -51.78269 | 38528 ft | 525 kts | 240° |
| 2026-05-05 08:52 | 56.52377 | -51.90224 | 38525 ft | 525 kts | 240° |
| 2026-05-05 08:53 | 56.49251 | -52.02161 | 38506 ft | 524 kts | 240° |
| 2026-05-05 08:53 | 56.46120 | -52.14051 | 38492 ft | 523 kts | 240° |
| 2026-05-05 08:54 | 56.42977 | -52.25922 | 38492 ft | 523 kts | 240° |
| 2026-05-05 08:54 | 56.39824 | -52.37769 | 38476 ft | 523 kts | 240° |
| 2026-05-05 08:55 | 56.36663 | -52.49585 | 38479 ft | 522 kts | 240° |
| 2026-05-05 08:55 | 56.33495 | -52.61366 | 38460 ft | 522 kts | 240° |
| 2026-05-05 08:56 | 56.30318 | -52.73119 | 38441 ft | 521 kts | 240° |
| 2026-05-05 08:56 | 56.27156 | -52.84757 | 38443 ft | 521 kts | 240° |
| 2026-05-05 08:57 | 56.23975 | -52.96404 | 38458 ft | 521 kts | 240° |
| 2026-05-05 08:57 | 56.20766 | -53.08096 | 38444 ft | 522 kts | 240° |
| 2026-05-05 08:58 | 56.17542 | -53.19779 | 38443 ft | 522 kts | 240° |
| 2026-05-05 08:58 | 56.14308 | -53.31442 | 38444 ft | 522 kts | 239° |
| 2026-05-05 08:59 | 56.11063 | -53.43084 | 38424 ft | 522 kts | 239° |
| 2026-05-05 08:59 | 56.07803 | -53.54722 | 38417 ft | 523 kts | 239° |
| 2026-05-05 09:00 | 56.04527 | -53.66359 | 38407 ft | 523 kts | 239° |
| 2026-05-05 09:00 | 56.01241 | -53.77973 | 38409 ft | 523 kts | 239° |
| 2026-05-05 09:01 | 55.97942 | -53.89574 | 38397 ft | 523 kts | 239° |
| 2026-05-05 09:01 | 55.94635 | -54.01145 | 38399 ft | 524 kts | 239° |
| 2026-05-05 09:02 | 55.91309 | -54.12723 | 38379 ft | 524 kts | 239° |
| 2026-05-05 09:02 | 55.87975 | -54.24272 | 38368 ft | 524 kts | 239° |
| 2026-05-05 09:03 | 55.84626 | -54.35818 | 38370 ft | 524 kts | 239° |
| 2026-05-05 09:03 | 55.81290 | -54.47261 | 38359 ft | 524 kts | 239° |
| 2026-05-05 09:04 | 55.77901 | -54.58829 | 38361 ft | 524 kts | 239° |
| 2026-05-05 09:04 | 55.74542 | -54.70239 | 38345 ft | 524 kts | 239° |
| 2026-05-05 09:05 | 55.71126 | -54.81784 | 38346 ft | 525 kts | 239° |
| 2026-05-05 09:05 | 55.67740 | -54.93173 | 38336 ft | 526 kts | 239° |
| 2026-05-05 09:06 | 55.64316 | -55.04632 | 38343 ft | 526 kts | 239° |
| 2026-05-05 09:06 | 55.60863 | -55.16139 | 38329 ft | 526 kts | 239° |
| 2026-05-05 09:07 | 55.57446 | -55.27466 | 38315 ft | 525 kts | 239° |
| 2026-05-05 09:07 | 55.53998 | -55.38838 | 38314 ft | 525 kts | 239° |
| 2026-05-05 09:08 | 55.50535 | -55.50209 | 38309 ft | 525 kts | 239° |
| 2026-05-05 09:08 | 55.47067 | -55.61539 | 38302 ft | 524 kts | 239° |
| 2026-05-05 09:09 | 55.43597 | -55.72827 | 38294 ft | 524 kts | 239° |
| 2026-05-05 09:09 | 55.40706 | -55.82188 | 38310 ft | 523 kts | 239° |
| 2026-05-05 09:10 | 55.37223 | -55.93417 | 38302 ft | 523 kts | 238° |
| 2026-05-05 09:10 | 55.33723 | -56.04646 | 38297 ft | 524 kts | 239° |
| 2026-05-05 09:11 | 55.30207 | -56.15876 | 38288 ft | 524 kts | 239° |
| 2026-05-05 09:11 | 55.26685 | -56.27072 | 38281 ft | 524 kts | 239° |
| 2026-05-05 09:12 | 55.23152 | -56.38251 | 38282 ft | 524 kts | 238° |
| 2026-05-05 09:12 | 55.19611 | -56.49402 | 38277 ft | 524 kts | 238° |
| 2026-05-05 09:13 | 55.16082 | -56.60463 | 38282 ft | 523 kts | 238° |
| 2026-05-05 09:13 | 55.12528 | -56.71554 | 38275 ft | 522 kts | 238° |
| 2026-05-05 09:14 | 55.08968 | -56.82610 | 38272 ft | 522 kts | 238° |
| 2026-05-05 09:14 | 55.05397 | -56.93653 | 38279 ft | 522 kts | 238° |
| 2026-05-05 09:15 | 55.02504 | -57.05291 | 38279 ft | 525 kts | 250° |
| 2026-05-05 09:15 | 55.00394 | -57.17485 | 38274 ft | 526 kts | 252° |
| 2026-05-05 09:16 | 54.98400 | -57.29747 | 38276 ft | 527 kts | 252° |
| 2026-05-05 09:16 | 54.96390 | -57.42006 | 38276 ft | 526 kts | 252° |
| 2026-05-05 09:17 | 54.94348 | -57.54237 | 38271 ft | 526 kts | 252° |
| 2026-05-05 09:17 | 54.92284 | -57.66449 | 38278 ft | 526 kts | 252° |
| 2026-05-05 09:18 | 54.90207 | -57.78642 | 38276 ft | 526 kts | 252° |
| 2026-05-05 09:18 | 54.88119 | -57.90822 | 38276 ft | 526 kts | 251° |
| 2026-05-05 09:19 | 54.86020 | -58.02984 | 38278 ft | 526 kts | 251° |
| 2026-05-05 09:19 | 54.83918 | -58.15087 | 38278 ft | 527 kts | 251° |
| 2026-05-05 09:20 | 54.81792 | -58.27242 | 38274 ft | 527 kts | 251° |
| 2026-05-05 09:20 | 54.79656 | -58.39374 | 38279 ft | 526 kts | 251° |
| 2026-05-05 09:21 | 54.77511 | -58.51475 | 38278 ft | 525 kts | 251° |
| 2026-05-05 09:21 | 54.75357 | -58.63545 | 38281 ft | 524 kts | 251° |
| 2026-05-05 09:22 | 54.73190 | -58.75608 | 38281 ft | 524 kts | 251° |
| 2026-05-05 09:22 | 54.71011 | -58.87658 | 38282 ft | 526 kts | 251° |
| 2026-05-05 09:23 | 54.68813 | -58.99733 | 38282 ft | 527 kts | 251° |
| 2026-05-05 09:23 | 54.66600 | -59.11812 | 38281 ft | 527 kts | 251° |
| 2026-05-05 09:24 | 54.64380 | -59.23857 | 38282 ft | 526 kts | 251° |
| 2026-05-05 09:24 | 54.62145 | -59.35900 | 38284 ft | 526 kts | 251° |
| 2026-05-05 09:25 | 54.59901 | -59.47912 | 38281 ft | 526 kts | 250° |
| 2026-05-05 09:25 | 54.57657 | -59.59847 | 38292 ft | 526 kts | 250° |
| 2026-05-05 09:26 | 54.55392 | -59.71820 | 38283 ft | 525 kts | 250° |
| 2026-05-05 09:26 | 54.53119 | -59.83764 | 38285 ft | 525 kts | 250° |
| 2026-05-05 09:27 | 54.50834 | -59.95696 | 38285 ft | 525 kts | 250° |
| 2026-05-05 09:27 | 54.49170 | -60.07934 | 38287 ft | 526 kts | 258° |
| 2026-05-05 09:28 | 54.47835 | -60.20308 | 38290 ft | 526 kts | 258° |
| 2026-05-05 09:28 | 54.46539 | -60.32694 | 38293 ft | 525 kts | 258° |
| 2026-05-05 09:29 | 54.45227 | -60.45039 | 38300 ft | 525 kts | 258° |
| 2026-05-05 09:29 | 54.43892 | -60.57363 | 38302 ft | 525 kts | 258° |
| 2026-05-05 09:30 | 54.42541 | -60.69679 | 38302 ft | 525 kts | 258° |
| 2026-05-05 09:30 | 54.41184 | -60.81915 | 38310 ft | 525 kts | 258° |
| 2026-05-05 09:31 | 54.39808 | -60.94214 | 38306 ft | 525 kts | 258° |
| 2026-05-05 09:31 | 54.38419 | -61.06509 | 38319 ft | 524 kts | 258° |
| 2026-05-05 09:32 | 54.37014 | -61.18771 | 38317 ft | 524 kts | 258° |
| 2026-05-05 09:32 | 54.35607 | -61.31020 | 38317 ft | 524 kts | 258° |
| 2026-05-05 09:33 | 54.34186 | -61.43265 | 38326 ft | 523 kts | 257° |
| 2026-05-05 09:33 | 54.32752 | -61.55493 | 38326 ft | 523 kts | 257° |
| 2026-05-05 09:34 | 54.31304 | -61.67724 | 38344 ft | 523 kts | 257° |
| 2026-05-05 09:34 | 54.29844 | -61.79939 | 38343 ft | 523 kts | 257° |
| 2026-05-05 09:35 | 54.28374 | -61.92121 | 38349 ft | 522 kts | 257° |
| 2026-05-05 09:35 | 54.26154 | -62.10327 | 38357 ft | 521 kts | 256° |
| 2026-05-05 09:36 | 54.24658 | -62.22458 | 38355 ft | 521 kts | 257° |
| 2026-05-05 09:36 | 54.23150 | -62.34573 | 38364 ft | 521 kts | 256° |
| 2026-05-05 09:37 | 54.21629 | -62.46680 | 38370 ft | 521 kts | 257° |
| 2026-05-05 09:37 | 54.20095 | -62.58795 | 38380 ft | 522 kts | 257° |
| 2026-05-05 09:38 | 54.18553 | -62.70865 | 38380 ft | 520 kts | 257° |
| 2026-05-05 09:38 | 54.17002 | -62.82909 | 38384 ft | 519 kts | 257° |
| 2026-05-05 09:39 | 54.15440 | -62.94934 | 38392 ft | 519 kts | 256° |
| 2026-05-05 09:39 | 54.13845 | -63.06935 | 38400 ft | 519 kts | 256° |
| 2026-05-05 09:40 | 54.12257 | -63.18942 | 38406 ft | 519 kts | 256° |
| 2026-05-05 09:40 | 54.10684 | -63.30875 | 38412 ft | 519 kts | 256° |
| 2026-05-05 09:41 | 54.09082 | -63.42859 | 38412 ft | 519 kts | 256° |
| 2026-05-05 09:41 | 54.07463 | -63.54833 | 38422 ft | 519 kts | 256° |
| 2026-05-05 09:42 | 54.05832 | -63.66779 | 38423 ft | 518 kts | 256° |
| 2026-05-05 09:42 | 54.04187 | -63.78730 | 38431 ft | 518 kts | 256° |
| 2026-05-05 09:43 | 54.02531 | -63.90668 | 38439 ft | 519 kts | 256° |
| 2026-05-05 09:43 | 54.00861 | -64.02615 | 38439 ft | 519 kts | 256° |
| 2026-05-05 09:44 | 53.99179 | -64.14550 | 38451 ft | 519 kts | 256° |
| 2026-05-05 09:44 | 53.97489 | -64.26451 | 38451 ft | 518 kts | 256° |
| 2026-05-05 09:45 | 53.95786 | -64.38352 | 38465 ft | 518 kts | 256° |
| 2026-05-05 09:45 | 53.94071 | -64.50245 | 38465 ft | 518 kts | 256° |
| 2026-05-05 09:46 | 53.92347 | -64.62112 | 38467 ft | 519 kts | 255° |
| 2026-05-05 09:46 | 53.90607 | -64.73995 | 38484 ft | 519 kts | 255° |
| 2026-05-05 09:47 | 53.88856 | -64.85865 | 38480 ft | 517 kts | 255° |
| 2026-05-05 09:47 | 53.87105 | -64.97647 | 38496 ft | 514 kts | 255° |
| 2026-05-05 09:48 | 53.85359 | -65.09309 | 38498 ft | 514 kts | 255° |
| 2026-05-05 09:48 | 53.83592 | -65.21023 | 38503 ft | 513 kts | 255° |
| 2026-05-05 09:49 | 53.81821 | -65.32678 | 38514 ft | 510 kts | 255° |
| 2026-05-05 09:49 | 53.80046 | -65.44276 | 38515 ft | 509 kts | 255° |
| 2026-05-05 09:50 | 53.78260 | -65.55861 | 38527 ft | 508 kts | 254° |
| 2026-05-05 09:50 | 53.76465 | -65.67417 | 38525 ft | 507 kts | 255° |
| 2026-05-05 09:51 | 53.74665 | -65.78937 | 38529 ft | 507 kts | 255° |
| 2026-05-05 09:51 | 53.72854 | -65.90442 | 38530 ft | 508 kts | 255° |
| 2026-05-05 09:52 | 53.71023 | -66.01996 | 38536 ft | 510 kts | 255° |
| 2026-05-05 09:52 | 53.69177 | -66.13563 | 38537 ft | 510 kts | 255° |
| 2026-05-05 09:53 | 53.67315 | -66.25146 | 38542 ft | 511 kts | 255° |
| 2026-05-05 09:53 | 53.65447 | -66.36694 | 38545 ft | 511 kts | 255° |
| 2026-05-05 09:54 | 53.63566 | -66.48238 | 38551 ft | 511 kts | 254° |
| 2026-05-05 09:54 | 53.61994 | -66.57826 | 38551 ft | 511 kts | 254° |
| 2026-05-05 09:55 | 53.60091 | -66.69366 | 38553 ft | 512 kts | 254° |
| 2026-05-05 09:55 | 53.58178 | -66.80884 | 38798 ft | 509 kts | 254° |
| 2026-05-05 09:56 | 53.57222 | -66.86613 | 38964 ft | 508 kts | 253° |
| 2026-05-05 09:56 | 53.56266 | -66.92326 | 39157 ft | 507 kts | 254° |
| 2026-05-05 09:56 | 53.55309 | -66.98023 | 39330 ft | 506 kts | 253° |
| 2026-05-05 09:56 | 53.54350 | -67.03712 | 39502 ft | 505 kts | 253° |
| 2026-05-05 09:57 | 53.52428 | -67.15058 | 39577 ft | 505 kts | 253° |
| 2026-05-05 09:57 | 53.50492 | -67.26414 | 39581 ft | 505 kts | 253° |
| 2026-05-05 09:58 | 53.48545 | -67.37758 | 39597 ft | 505 kts | 253° |
| 2026-05-05 09:58 | 53.46591 | -67.49079 | 39593 ft | 504 kts | 253° |
| 2026-05-05 09:59 | 53.44626 | -67.60383 | 39605 ft | 504 kts | 253° |
| 2026-05-05 09:59 | 53.42664 | -67.71600 | 39604 ft | 504 kts | 253° |
| 2026-05-05 10:00 | 53.40680 | -67.82873 | 39607 ft | 503 kts | 253° |
| 2026-05-05 10:00 | 53.38688 | -67.94123 | 39615 ft | 504 kts | 253° |
| 2026-05-05 10:01 | 53.36682 | -68.05377 | 39612 ft | 505 kts | 253° |
| 2026-05-05 10:01 | 53.34663 | -68.16636 | 39616 ft | 505 kts | 253° |
| 2026-05-05 10:02 | 53.32636 | -68.27875 | 39614 ft | 505 kts | 253° |
| 2026-05-05 10:02 | 53.30597 | -68.39105 | 39614 ft | 505 kts | 252° |
| 2026-05-05 10:03 | 53.28547 | -68.50326 | 39623 ft | 505 kts | 252° |
| 2026-05-05 10:03 | 53.26486 | -68.61544 | 39622 ft | 505 kts | 252° |
| 2026-05-05 10:04 | 53.24414 | -68.72749 | 39629 ft | 505 kts | 252° |
| 2026-05-05 10:04 | 53.22333 | -68.83939 | 39627 ft | 505 kts | 252° |
| 2026-05-05 10:05 | 53.20240 | -68.95124 | 39626 ft | 505 kts | 252° |
| 2026-05-05 10:05 | 53.18138 | -69.06293 | 39631 ft | 505 kts | 252° |
| 2026-05-05 10:06 | 53.16023 | -69.17464 | 39633 ft | 505 kts | 252° |
| 2026-05-05 10:06 | 53.13916 | -69.28523 | 39633 ft | 504 kts | 252° |
| 2026-05-05 10:07 | 53.11788 | -69.39632 | 39640 ft | 503 kts | 252° |
| 2026-05-05 10:07 | 53.09651 | -69.50721 | 39642 ft | 503 kts | 251° |
| 2026-05-05 10:08 | 53.07503 | -69.61804 | 39644 ft | 503 kts | 251° |
| 2026-05-05 10:08 | 53.05345 | -69.72869 | 39645 ft | 503 kts | 251° |
| 2026-05-05 10:09 | 53.03175 | -69.83937 | 39646 ft | 503 kts | 251° |
| 2026-05-05 10:09 | 53.01001 | -69.94966 | 39633 ft | 502 kts | 251° |
| 2026-05-05 10:10 | 52.98901 | -70.06007 | 39634 ft | 501 kts | 254° |
| 2026-05-05 10:10 | 52.97236 | -70.17239 | 39623 ft | 502 kts | 256° |
| 2026-05-05 10:11 | 52.95638 | -70.28500 | 39626 ft | 502 kts | 256° |
| 2026-05-05 10:11 | 52.93967 | -70.39733 | 39625 ft | 501 kts | 255° |
| 2026-05-05 10:12 | 52.92242 | -70.50944 | 39601 ft | 502 kts | 255° |
| 2026-05-05 10:12 | 52.90496 | -70.62138 | 39599 ft | 502 kts | 255° |
| 2026-05-05 10:13 | 52.88743 | -70.73313 | 39595 ft | 500 kts | 254° |
| 2026-05-05 10:13 | 52.86989 | -70.84438 | 39587 ft | 499 kts | 254° |
| 2026-05-05 10:14 | 52.85236 | -70.95482 | 39584 ft | 499 kts | 254° |
| 2026-05-05 10:14 | 52.83462 | -71.06593 | 39585 ft | 500 kts | 254° |
| 2026-05-05 10:15 | 52.81675 | -71.17700 | 39573 ft | 500 kts | 254° |
| 2026-05-05 10:15 | 52.79879 | -71.28799 | 39572 ft | 500 kts | 254° |
| 2026-05-05 10:16 | 52.78072 | -71.39888 | 39567 ft | 500 kts | 254° |
| 2026-05-05 10:16 | 52.76256 | -71.50957 | 39559 ft | 498 kts | 253° |
| 2026-05-05 10:17 | 52.74436 | -71.61982 | 39563 ft | 497 kts | 253° |
| 2026-05-05 10:17 | 52.72607 | -71.72994 | 39545 ft | 498 kts | 253° |
| 2026-05-05 10:18 | 52.70767 | -71.83994 | 39545 ft | 498 kts | 253° |
| 2026-05-05 10:18 | 52.68928 | -71.94924 | 39540 ft | 498 kts | 253° |
| 2026-05-05 10:19 | 52.67067 | -72.05910 | 39534 ft | 498 kts | 253° |
| 2026-05-05 10:19 | 52.65198 | -72.16881 | 39525 ft | 498 kts | 253° |
| 2026-05-05 10:20 | 52.63317 | -72.27851 | 39527 ft | 498 kts | 253° |
| 2026-05-05 10:20 | 52.61421 | -72.38841 | 39514 ft | 499 kts | 252° |
| 2026-05-05 10:21 | 52.59517 | -72.49805 | 39518 ft | 499 kts | 252° |
| 2026-05-05 10:21 | 52.57602 | -72.60766 | 39510 ft | 499 kts | 252° |
| 2026-05-05 10:22 | 52.55678 | -72.71712 | 39505 ft | 499 kts | 252° |
| 2026-05-05 10:22 | 52.53742 | -72.82656 | 39507 ft | 499 kts | 252° |
| 2026-05-05 10:23 | 52.51794 | -72.93606 | 39501 ft | 500 kts | 252° |
| 2026-05-05 10:23 | 52.49836 | -73.04541 | 39485 ft | 498 kts | 252° |
| 2026-05-05 10:24 | 52.47879 | -73.15411 | 39487 ft | 496 kts | 252° |
| 2026-05-05 10:24 | 52.45917 | -73.26237 | 39478 ft | 495 kts | 252° |
| 2026-05-05 10:25 | 52.43946 | -73.37055 | 39478 ft | 495 kts | 252° |
| 2026-05-05 10:25 | 52.41963 | -73.47870 | 39479 ft | 496 kts | 252° |
| 2026-05-05 10:26 | 52.39983 | -73.58610 | 39469 ft | 496 kts | 252° |
| 2026-05-05 10:26 | 52.37980 | -73.69408 | 39467 ft | 496 kts | 252° |
| 2026-05-05 10:27 | 52.35968 | -73.80195 | 39461 ft | 496 kts | 252° |
| 2026-05-05 10:27 | 52.33944 | -73.90980 | 39459 ft | 496 kts | 252° |
| 2026-05-05 10:28 | 52.31910 | -74.01757 | 39457 ft | 496 kts | 251° |
| 2026-05-05 10:28 | 52.29866 | -74.12528 | 39453 ft | 496 kts | 251° |
| 2026-05-05 10:29 | 52.27810 | -74.23300 | 39441 ft | 496 kts | 251° |
| 2026-05-05 10:29 | 52.25745 | -74.34055 | 39446 ft | 496 kts | 251° |
| 2026-05-05 10:30 | 52.23685 | -74.44725 | 39434 ft | 496 kts | 251° |
| 2026-05-05 10:30 | 52.21603 | -74.55452 | 39433 ft | 495 kts | 251° |
| 2026-05-05 10:31 | 52.19519 | -74.66126 | 39427 ft | 493 kts | 251° |
| 2026-05-05 10:31 | 52.17425 | -74.76793 | 39422 ft | 493 kts | 251° |
| 2026-05-05 10:32 | 52.15325 | -74.87428 | 39423 ft | 493 kts | 251° |
| 2026-05-05 10:32 | 52.13216 | -74.98053 | 39425 ft | 493 kts | 251° |
| 2026-05-05 10:33 | 52.11095 | -75.08681 | 39422 ft | 493 kts | 251° |
| 2026-05-05 10:33 | 52.08964 | -75.19301 | 39408 ft | 495 kts | 250° |
| 2026-05-05 10:34 | 52.06817 | -75.29942 | 39420 ft | 495 kts | 250° |
| 2026-05-05 10:34 | 52.04676 | -75.40495 | 39396 ft | 494 kts | 250° |
| 2026-05-05 10:35 | 52.02514 | -75.51098 | 39405 ft | 494 kts | 250° |
| 2026-05-05 10:35 | 52.00344 | -75.61681 | 39404 ft | 494 kts | 250° |
| 2026-05-05 10:36 | 51.98164 | -75.72256 | 39400 ft | 495 kts | 250° |
| 2026-05-05 10:36 | 51.95969 | -75.82848 | 39394 ft | 495 kts | 250° |
| 2026-05-05 10:37 | 51.93763 | -75.93437 | 39395 ft | 496 kts | 250° |
| 2026-05-05 10:37 | 51.91550 | -76.04004 | 39384 ft | 495 kts | 250° |
| 2026-05-05 10:38 | 51.89332 | -76.14540 | 39386 ft | 494 kts | 250° |
| 2026-05-05 10:38 | 51.87109 | -76.25047 | 39392 ft | 493 kts | 250° |
| 2026-05-05 10:39 | 51.84874 | -76.35551 | 39381 ft | 494 kts | 250° |
| 2026-05-05 10:39 | 51.82628 | -76.46052 | 39382 ft | 494 kts | 250° |
| 2026-05-05 10:40 | 51.80375 | -76.56537 | 39379 ft | 494 kts | 249° |
| 2026-05-05 10:40 | 51.78111 | -76.67016 | 39383 ft | 494 kts | 249° |
| 2026-05-05 10:41 | 51.75841 | -76.77468 | 39378 ft | 493 kts | 249° |
| 2026-05-05 10:41 | 51.73948 | -76.86147 | 39381 ft | 493 kts | 249° |
| 2026-05-05 10:42 | 51.70513 | -77.01799 | 39379 ft | 494 kts | 249° |
| 2026-05-05 10:43 | 51.67838 | -77.13908 | 39377 ft | 494 kts | 249° |
| 2026-05-05 10:43 | 51.65902 | -77.22626 | 39379 ft | 493 kts | 249° |
| 2026-05-05 10:44 | 51.63582 | -77.33028 | 39377 ft | 493 kts | 249° |
| 2026-05-05 10:44 | 51.61251 | -77.43423 | 39376 ft | 494 kts | 249° |
| 2026-05-05 10:45 | 51.58927 | -77.53741 | 39381 ft | 493 kts | 249° |
| 2026-05-05 10:45 | 51.56577 | -77.64125 | 39377 ft | 493 kts | 248° |
| 2026-05-05 10:46 | 51.54221 | -77.74477 | 39375 ft | 493 kts | 248° |
| 2026-05-05 10:46 | 51.51858 | -77.84814 | 39374 ft | 493 kts | 248° |
| 2026-05-05 10:47 | 51.49483 | -77.95150 | 39379 ft | 494 kts | 248° |
| 2026-05-05 10:47 | 51.47096 | -78.05489 | 39369 ft | 494 kts | 248° |
| 2026-05-05 10:48 | 51.44698 | -78.15829 | 39378 ft | 495 kts | 248° |
| 2026-05-05 10:48 | 51.42291 | -78.26155 | 39373 ft | 494 kts | 248° |
| 2026-05-05 10:49 | 51.39876 | -78.36466 | 39372 ft | 494 kts | 248° |
| 2026-05-05 10:49 | 51.37453 | -78.46758 | 39379 ft | 494 kts | 248° |
| 2026-05-05 10:50 | 51.35016 | -78.57065 | 39373 ft | 495 kts | 248° |
| 2026-05-05 10:50 | 51.32583 | -78.67302 | 39374 ft | 495 kts | 248° |
| 2026-05-05 10:51 | 51.30126 | -78.77594 | 39370 ft | 495 kts | 248° |
| 2026-05-05 10:51 | 51.27660 | -78.87876 | 39361 ft | 495 kts | 247° |
| 2026-05-05 10:52 | 51.25190 | -78.98128 | 39373 ft | 495 kts | 247° |
| 2026-05-05 10:52 | 51.22707 | -79.08380 | 39374 ft | 495 kts | 247° |
| 2026-05-05 10:53 | 51.20216 | -79.18619 | 39374 ft | 495 kts | 247° |
| 2026-05-05 10:53 | 51.17716 | -79.28847 | 39375 ft | 495 kts | 247° |
| 2026-05-05 10:54 | 51.15207 | -79.39067 | 39369 ft | 495 kts | 247° |
| 2026-05-05 10:54 | 51.12687 | -79.49283 | 39374 ft | 495 kts | 247° |
| 2026-05-05 10:55 | 51.10156 | -79.59492 | 39370 ft | 496 kts | 247° |
| 2026-05-05 10:55 | 51.07615 | -79.69698 | 39371 ft | 496 kts | 247° |
| 2026-05-05 10:56 | 51.05066 | -79.79891 | 39381 ft | 496 kts | 247° |
| 2026-05-05 10:56 | 51.02507 | -79.90078 | 39377 ft | 496 kts | 247° |
| 2026-05-05 10:57 | 50.99940 | -80.00247 | 39385 ft | 496 kts | 247° |
| 2026-05-05 10:57 | 50.97682 | -80.10605 | 39372 ft | 497 kts | 252° |
| 2026-05-05 10:58 | 50.95730 | -80.21133 | 39373 ft | 497 kts | 252° |
| 2026-05-05 10:58 | 50.93743 | -80.31630 | 39376 ft | 497 kts | 251° |
| 2026-05-05 10:59 | 50.91696 | -80.42017 | 39369 ft | 496 kts | 251° |
| 2026-05-05 10:59 | 50.89604 | -80.52433 | 39368 ft | 496 kts | 251° |
| 2026-05-05 11:00 | 50.87502 | -80.62829 | 39377 ft | 496 kts | 251° |
| 2026-05-05 11:00 | 50.85393 | -80.73221 | 39379 ft | 496 kts | 251° |
| 2026-05-05 11:01 | 50.83276 | -80.83609 | 39387 ft | 496 kts | 251° |
| 2026-05-05 11:01 | 50.81151 | -80.93981 | 39385 ft | 496 kts | 251° |
| 2026-05-05 11:02 | 50.79016 | -81.04348 | 39386 ft | 496 kts | 251° |
| 2026-05-05 11:02 | 50.76871 | -81.14706 | 39387 ft | 496 kts | 250° |
| 2026-05-05 11:03 | 50.74718 | -81.25053 | 39384 ft | 496 kts | 250° |
| 2026-05-05 11:03 | 50.72552 | -81.35403 | 39389 ft | 496 kts | 250° |
| 2026-05-05 11:04 | 50.70378 | -81.45741 | 39387 ft | 496 kts | 250° |
| 2026-05-05 11:04 | 50.68199 | -81.56054 | 39387 ft | 496 kts | 250° |
| 2026-05-05 11:05 | 50.66006 | -81.66378 | 39393 ft | 496 kts | 250° |
| 2026-05-05 11:05 | 50.63808 | -81.76669 | 39392 ft | 496 kts | 250° |
| 2026-05-05 11:06 | 50.61601 | -81.86953 | 39387 ft | 496 kts | 250° |
| 2026-05-05 11:06 | 50.59399 | -81.97162 | 39388 ft | 495 kts | 250° |
| 2026-05-05 11:07 | 50.57180 | -82.07401 | 39391 ft | 494 kts | 250° |
| 2026-05-05 11:07 | 50.54952 | -82.17627 | 39390 ft | 495 kts | 250° |
| 2026-05-05 11:08 | 50.52711 | -82.27863 | 39391 ft | 495 kts | 250° |
| 2026-05-05 11:08 | 50.50462 | -82.38085 | 39394 ft | 495 kts | 250° |
| 2026-05-05 11:09 | 50.48207 | -82.48286 | 39393 ft | 495 kts | 250° |
| 2026-05-05 11:09 | 50.45939 | -82.58493 | 39408 ft | 495 kts | 250° |
| 2026-05-05 11:10 | 50.43659 | -82.68703 | 39401 ft | 496 kts | 249° |
| 2026-05-05 11:10 | 50.41370 | -82.78905 | 39402 ft | 496 kts | 249° |
| 2026-05-05 11:11 | 50.39077 | -82.89078 | 39404 ft | 494 kts | 249° |
| 2026-05-05 11:11 | 50.36778 | -82.99227 | 39418 ft | 494 kts | 249° |
| 2026-05-05 11:12 | 50.34469 | -83.09369 | 39428 ft | 494 kts | 249° |
| 2026-05-05 11:12 | 50.32167 | -83.19434 | 39420 ft | 494 kts | 249° |
| 2026-05-05 11:13 | 50.29841 | -83.29559 | 39425 ft | 495 kts | 249° |
| 2026-05-05 11:13 | 50.27507 | -83.39666 | 39431 ft | 495 kts | 249° |
| 2026-05-05 11:14 | 50.25160 | -83.49781 | 39431 ft | 495 kts | 249° |
| 2026-05-05 11:14 | 50.22810 | -83.59865 | 39447 ft | 494 kts | 249° |
| 2026-05-05 11:15 | 50.20453 | -83.69929 | 39445 ft | 493 kts | 249° |
| 2026-05-05 11:15 | 50.18087 | -83.79983 | 39448 ft | 493 kts | 249° |
| 2026-05-05 11:16 | 50.15713 | -83.90027 | 39460 ft | 493 kts | 249° |
| 2026-05-05 11:16 | 50.13330 | -84.00064 | 39462 ft | 493 kts | 249° |
| 2026-05-05 11:17 | 50.10936 | -84.10095 | 39460 ft | 494 kts | 249° |
| 2026-05-05 11:17 | 50.08530 | -84.20134 | 39473 ft | 495 kts | 249° |
| 2026-05-05 11:18 | 50.06133 | -84.30092 | 39473 ft | 495 kts | 249° |
| 2026-05-05 11:18 | 50.03711 | -84.40105 | 39475 ft | 494 kts | 249° |
| 2026-05-05 11:19 | 50.01269 | -84.50152 | 39484 ft | 493 kts | 249° |
| 2026-05-05 11:19 | 49.98853 | -84.60053 | 39490 ft | 494 kts | 249° |
| 2026-05-05 11:19 | 49.97616 | -84.65100 | 39614 ft | 492 kts | 249° |
| 2026-05-05 11:20 | 49.96402 | -84.70046 | 39877 ft | 488 kts | 249° |
| 2026-05-05 11:20 | 49.95210 | -84.74892 | 40155 ft | 485 kts | 249° |
| 2026-05-05 11:20 | 49.94007 | -84.79772 | 40442 ft | 483 kts | 249° |
| 2026-05-05 11:20 | 49.92808 | -84.84626 | 40734 ft | 480 kts | 249° |
| 2026-05-05 11:21 | 49.91614 | -84.89447 | 41023 ft | 477 kts | 249° |
| 2026-05-05 11:21 | 49.90424 | -84.94240 | 41340 ft | 474 kts | 249° |
| 2026-05-05 11:21 | 49.89225 | -84.99060 | 41631 ft | 471 kts | 249° |
| 2026-05-05 11:21 | 49.88063 | -85.03725 | 41930 ft | 468 kts | 249° |
| 2026-05-05 11:22 | 49.86874 | -85.08482 | 42246 ft | 465 kts | 249° |
| 2026-05-05 11:22 | 49.85726 | -85.13072 | 42491 ft | 463 kts | 249° |
| 2026-05-05 11:22 | 49.84556 | -85.17737 | 42524 ft | 466 kts | 249° |
| 2026-05-05 11:23 | 49.82185 | -85.27157 | 42520 ft | 473 kts | 249° |
| 2026-05-05 11:23 | 49.79775 | -85.36695 | 42521 ft | 479 kts | 249° |
| 2026-05-05 11:24 | 49.77327 | -85.46345 | 42536 ft | 484 kts | 248° |
| 2026-05-05 11:24 | 49.74850 | -85.56067 | 42536 ft | 488 kts | 248° |
| 2026-05-05 11:25 | 49.72345 | -85.65853 | 42536 ft | 491 kts | 248° |
| 2026-05-05 11:25 | 49.69822 | -85.75670 | 42550 ft | 492 kts | 248° |
| 2026-05-05 11:26 | 49.67288 | -85.85485 | 42548 ft | 492 kts | 248° |
| 2026-05-05 11:26 | 49.64747 | -85.95286 | 42559 ft | 491 kts | 248° |
| 2026-05-05 11:27 | 49.62206 | -86.05043 | 42570 ft | 490 kts | 248° |
| 2026-05-05 11:27 | 49.59654 | -86.14801 | 42570 ft | 490 kts | 248° |
| 2026-05-05 11:28 | 49.57099 | -86.24533 | 42573 ft | 490 kts | 248° |
| 2026-05-05 11:28 | 49.54970 | -86.32607 | 42582 ft | 490 kts | 248° |
| 2026-05-05 11:29 | 49.52397 | -86.42328 | 42591 ft | 490 kts | 248° |
| 2026-05-05 11:29 | 49.49817 | -86.52038 | 42586 ft | 491 kts | 248° |
| 2026-05-05 11:30 | 49.47224 | -86.61754 | 42588 ft | 491 kts | 248° |
| 2026-05-05 11:30 | 49.44630 | -86.71432 | 42599 ft | 488 kts | 248° |
| 2026-05-05 11:31 | 49.42055 | -86.80999 | 42606 ft | 488 kts | 248° |
| 2026-05-05 11:31 | 49.39441 | -86.90674 | 42617 ft | 488 kts | 248° |
| 2026-05-05 11:32 | 49.36843 | -87.00247 | 42618 ft | 489 kts | 248° |
| 2026-05-05 11:32 | 49.34220 | -87.09875 | 42620 ft | 489 kts | 247° |
| 2026-05-05 11:33 | 49.31587 | -87.19499 | 42622 ft | 489 kts | 247° |
| 2026-05-05 11:33 | 49.28947 | -87.29109 | 42628 ft | 489 kts | 247° |
| 2026-05-05 11:34 | 49.26298 | -87.38709 | 42625 ft | 489 kts | 247° |
| 2026-05-05 11:34 | 49.23647 | -87.48284 | 42634 ft | 488 kts | 247° |
| 2026-05-05 11:35 | 49.20989 | -87.57842 | 42641 ft | 488 kts | 247° |
| 2026-05-05 11:35 | 49.18325 | -87.67381 | 42637 ft | 488 kts | 247° |
| 2026-05-05 11:36 | 49.15651 | -87.76921 | 42637 ft | 488 kts | 247° |
| 2026-05-05 11:36 | 49.12967 | -87.86458 | 42638 ft | 489 kts | 247° |
| 2026-05-05 11:37 | 49.10270 | -87.96001 | 42642 ft | 489 kts | 247° |
| 2026-05-05 11:37 | 49.07566 | -88.05533 | 42641 ft | 489 kts | 247° |
| 2026-05-05 11:38 | 49.04857 | -88.15041 | 42646 ft | 488 kts | 247° |
| 2026-05-05 11:38 | 49.02163 | -88.24462 | 42659 ft | 488 kts | 247° |
| 2026-05-05 11:39 | 48.99444 | -88.33932 | 42654 ft | 488 kts | 247° |
| 2026-05-05 11:39 | 48.96713 | -88.43405 | 42646 ft | 488 kts | 247° |
| 2026-05-05 11:40 | 48.93978 | -88.52857 | 42650 ft | 488 kts | 247° |
| 2026-05-05 11:40 | 48.91236 | -88.62296 | 42659 ft | 488 kts | 247° |
| 2026-05-05 11:41 | 48.88483 | -88.71733 | 42663 ft | 488 kts | 247° |
| 2026-05-05 11:41 | 48.85723 | -88.81160 | 42670 ft | 489 kts | 247° |
| 2026-05-05 11:42 | 48.82948 | -88.90603 | 42670 ft | 490 kts | 247° |
| 2026-05-05 11:42 | 48.80168 | -89.00025 | 42678 ft | 490 kts | 246° |
| 2026-05-05 11:43 | 48.77396 | -89.09384 | 42677 ft | 490 kts | 246° |
| 2026-05-05 11:43 | 48.74598 | -89.18791 | 42684 ft | 489 kts | 247° |
| 2026-05-05 11:44 | 48.71775 | -89.28247 | 42690 ft | 489 kts | 246° |
| 2026-05-05 11:44 | 48.68983 | -89.37569 | 42693 ft | 489 kts | 246° |
| 2026-05-05 11:45 | 48.66159 | -89.46955 | 42691 ft | 489 kts | 246° |
| 2026-05-05 11:45 | 48.63329 | -89.56330 | 42698 ft | 488 kts | 246° |
| 2026-05-05 11:46 | 48.60503 | -89.65654 | 42702 ft | 488 kts | 246° |
| 2026-05-05 11:46 | 48.57672 | -89.74958 | 42701 ft | 487 kts | 246° |
| 2026-05-05 11:47 | 48.54833 | -89.84257 | 42702 ft | 487 kts | 246° |
| 2026-05-05 11:47 | 48.51985 | -89.93547 | 42697 ft | 487 kts | 246° |
| 2026-05-05 11:48 | 48.47612 | -90.07317 | 42707 ft | 488 kts | 244° |
| 2026-05-05 11:48 | 48.44405 | -90.16330 | 42705 ft | 488 kts | 243° |
| 2026-05-05 11:49 | 48.41166 | -90.25370 | 42707 ft | 486 kts | 243° |
| 2026-05-05 11:49 | 48.38010 | -90.34285 | 42707 ft | 485 kts | 244° |
| 2026-05-05 11:50 | 48.34846 | -90.43259 | 42710 ft | 485 kts | 244° |
| 2026-05-05 11:50 | 48.31677 | -90.52227 | 42724 ft | 485 kts | 244° |
| 2026-05-05 11:51 | 48.28508 | -90.61160 | 42727 ft | 485 kts | 243° |
| 2026-05-05 11:51 | 48.25328 | -90.70091 | 42745 ft | 485 kts | 243° |
| 2026-05-05 11:52 | 48.22140 | -90.79011 | 42725 ft | 485 kts | 243° |
| 2026-05-05 11:52 | 48.18954 | -90.87894 | 42746 ft | 483 kts | 243° |
| 2026-05-05 11:53 | 48.15766 | -90.96757 | 42744 ft | 483 kts | 243° |
| 2026-05-05 11:53 | 48.12569 | -91.05612 | 42750 ft | 483 kts | 243° |
| 2026-05-05 11:54 | 48.09367 | -91.14450 | 42749 ft | 483 kts | 243° |
| 2026-05-05 11:54 | 48.06160 | -91.23277 | 42752 ft | 483 kts | 243° |
| 2026-05-05 11:55 | 48.02943 | -91.32099 | 42754 ft | 483 kts | 243° |
| 2026-05-05 11:55 | 47.99717 | -91.40914 | 42750 ft | 483 kts | 243° |
| 2026-05-05 11:56 | 47.96508 | -91.49655 | 42756 ft | 482 kts | 243° |
| 2026-05-05 11:56 | 47.93259 | -91.58476 | 42756 ft | 482 kts | 243° |
| 2026-05-05 11:57 | 47.90045 | -91.67172 | 42753 ft | 482 kts | 243° |
| 2026-05-05 11:57 | 47.86802 | -91.75918 | 42748 ft | 482 kts | 243° |
| 2026-05-05 11:58 | 47.83553 | -91.84654 | 42748 ft | 482 kts | 243° |
| 2026-05-05 11:58 | 47.80294 | -91.93385 | 42782 ft | 482 kts | 243° |
| 2026-05-05 11:59 | 47.77028 | -92.02108 | 42790 ft | 482 kts | 243° |
| 2026-05-05 11:59 | 47.73764 | -92.10794 | 42791 ft | 481 kts | 243° |
| 2026-05-05 12:00 | 47.70496 | -92.19464 | 42804 ft | 481 kts | 243° |
| 2026-05-05 12:00 | 47.67222 | -92.28125 | 42804 ft | 481 kts | 243° |
| 2026-05-05 12:01 | 47.63944 | -92.36765 | 42807 ft | 481 kts | 243° |
| 2026-05-05 12:01 | 47.60655 | -92.45407 | 42805 ft | 481 kts | 243° |
| 2026-05-05 12:02 | 47.57363 | -92.54028 | 42806 ft | 481 kts | 243° |
| 2026-05-05 12:02 | 47.54070 | -92.62624 | 42802 ft | 480 kts | 243° |
| 2026-05-05 12:03 | 47.50772 | -92.71206 | 42806 ft | 479 kts | 243° |
| 2026-05-05 12:03 | 47.47472 | -92.79766 | 42825 ft | 479 kts | 243° |
| 2026-05-05 12:04 | 47.44193 | -92.88246 | 42804 ft | 479 kts | 243° |
| 2026-05-05 12:04 | 47.40864 | -92.96826 | 42792 ft | 478 kts | 243° |
| 2026-05-05 12:05 | 47.37574 | -93.05279 | 42800 ft | 478 kts | 243° |
| 2026-05-05 12:05 | 47.34256 | -93.13780 | 42808 ft | 478 kts | 243° |
| 2026-05-05 12:06 | 47.30936 | -93.22255 | 42836 ft | 477 kts | 243° |
| 2026-05-05 12:06 | 47.27617 | -93.30705 | 42849 ft | 476 kts | 243° |
| 2026-05-05 12:07 | 47.24290 | -93.39146 | 42840 ft | 476 kts | 243° |
| 2026-05-05 12:07 | 47.20959 | -93.47572 | 42841 ft | 476 kts | 243° |
| 2026-05-05 12:08 | 47.17625 | -93.55980 | 42846 ft | 476 kts | 242° |
| 2026-05-05 12:08 | 47.14286 | -93.64374 | 42847 ft | 476 kts | 242° |
| 2026-05-05 12:09 | 47.10940 | -93.72758 | 42842 ft | 475 kts | 242° |
| 2026-05-05 12:09 | 47.07597 | -93.81110 | 42860 ft | 474 kts | 242° |
| 2026-05-05 12:10 | 47.04248 | -93.89453 | 42853 ft | 474 kts | 242° |
| 2026-05-05 12:10 | 47.00897 | -93.97777 | 42848 ft | 474 kts | 242° |
| 2026-05-05 12:11 | 46.97453 | -94.06023 | 42846 ft | 475 kts | 240° |
| 2026-05-05 12:11 | 46.93794 | -94.14026 | 42840 ft | 475 kts | 239° |
| 2026-05-05 12:12 | 46.90095 | -94.22046 | 42840 ft | 475 kts | 239° |
| 2026-05-05 12:12 | 46.86427 | -94.30082 | 42844 ft | 474 kts | 239° |
| 2026-05-05 12:13 | 46.82781 | -94.38107 | 42854 ft | 474 kts | 240° |
| 2026-05-05 12:13 | 46.79137 | -94.46116 | 42851 ft | 474 kts | 239° |
| 2026-05-05 12:14 | 46.75487 | -94.54111 | 42855 ft | 473 kts | 239° |
| 2026-05-05 12:14 | 46.71832 | -94.62092 | 42862 ft | 473 kts | 239° |
| 2026-05-05 12:15 | 46.68170 | -94.70064 | 42882 ft | 473 kts | 239° |
| 2026-05-05 12:15 | 46.65123 | -94.76679 | 42879 ft | 473 kts | 239° |
| 2026-05-05 12:16 | 46.61453 | -94.84626 | 42885 ft | 473 kts | 239° |
| 2026-05-05 12:16 | 46.57774 | -94.92571 | 42892 ft | 474 kts | 239° |
| 2026-05-05 12:17 | 46.54086 | -95.00512 | 42875 ft | 474 kts | 239° |
| 2026-05-05 12:17 | 46.50393 | -95.08440 | 42869 ft | 474 kts | 239° |
| 2026-05-05 12:18 | 46.46691 | -95.16366 | 42865 ft | 474 kts | 239° |
| 2026-05-05 12:18 | 46.42988 | -95.24271 | 42861 ft | 474 kts | 239° |
| 2026-05-05 12:19 | 46.39282 | -95.32159 | 42907 ft | 474 kts | 239° |
| 2026-05-05 12:19 | 46.35569 | -95.40043 | 42910 ft | 474 kts | 239° |
| 2026-05-05 12:20 | 46.31851 | -95.47913 | 42912 ft | 474 kts | 239° |
| 2026-05-05 12:20 | 46.28127 | -95.55775 | 42916 ft | 474 kts | 239° |
| 2026-05-05 12:21 | 46.24398 | -95.63623 | 42912 ft | 474 kts | 239° |
| 2026-05-05 12:21 | 46.20665 | -95.71460 | 42909 ft | 473 kts | 239° |
| 2026-05-05 12:22 | 46.16926 | -95.79286 | 42920 ft | 473 kts | 239° |
| 2026-05-05 12:22 | 46.13187 | -95.87091 | 42915 ft | 473 kts | 239° |
| 2026-05-05 12:23 | 46.09445 | -95.94881 | 42915 ft | 473 kts | 239° |
| 2026-05-05 12:23 | 46.05696 | -96.02663 | 42916 ft | 473 kts | 239° |
| 2026-05-05 12:24 | 46.01943 | -96.10433 | 42918 ft | 473 kts | 239° |
| 2026-05-05 12:24 | 45.98185 | -96.18191 | 42921 ft | 472 kts | 238° |
| 2026-05-05 12:25 | 45.94429 | -96.25923 | 42930 ft | 471 kts | 238° |
| 2026-05-05 12:25 | 45.90675 | -96.33632 | 42926 ft | 471 kts | 238° |
| 2026-05-05 12:26 | 45.86939 | -96.41282 | 42933 ft | 471 kts | 238° |
| 2026-05-05 12:26 | 45.83170 | -96.48980 | 42935 ft | 472 kts | 238° |
| 2026-05-05 12:27 | 45.79391 | -96.56675 | 42928 ft | 472 kts | 238° |
| 2026-05-05 12:27 | 45.75613 | -96.64347 | 42922 ft | 471 kts | 238° |
| 2026-05-05 12:28 | 45.71835 | -96.71999 | 42925 ft | 470 kts | 238° |
| 2026-05-05 12:28 | 45.68054 | -96.79636 | 42923 ft | 470 kts | 238° |
| 2026-05-05 12:29 | 45.64266 | -96.87268 | 42927 ft | 471 kts | 238° |
| 2026-05-05 12:29 | 45.60474 | -96.94887 | 42927 ft | 471 kts | 238° |
| 2026-05-05 12:30 | 45.56675 | -97.02499 | 42928 ft | 471 kts | 238° |
| 2026-05-05 12:30 | 45.52876 | -97.10089 | 42934 ft | 469 kts | 238° |
| 2026-05-05 12:31 | 45.49079 | -97.17657 | 42934 ft | 468 kts | 238° |
| 2026-05-05 12:31 | 45.45285 | -97.25199 | 42937 ft | 468 kts | 238° |
| 2026-05-05 12:32 | 45.41508 | -97.32687 | 42947 ft | 468 kts | 238° |
| 2026-05-05 12:32 | 45.37704 | -97.40210 | 42941 ft | 468 kts | 238° |
| 2026-05-05 12:33 | 45.33893 | -97.47725 | 42949 ft | 468 kts | 238° |
| 2026-05-05 12:33 | 45.30082 | -97.55221 | 42949 ft | 468 kts | 238° |
| 2026-05-05 12:34 | 45.26271 | -97.62697 | 42947 ft | 467 kts | 238° |
| 2026-05-05 12:34 | 45.22453 | -97.70167 | 42947 ft | 467 kts | 238° |
| 2026-05-05 12:35 | 45.18632 | -97.77624 | 42952 ft | 467 kts | 238° |
| 2026-05-05 12:35 | 45.14806 | -97.85071 | 42952 ft | 467 kts | 238° |
| 2026-05-05 12:36 | 45.10977 | -97.92504 | 42952 ft | 467 kts | 237° |
| 2026-05-05 12:36 | 45.07149 | -97.99915 | 42963 ft | 466 kts | 238° |
| 2026-05-05 12:37 | 45.03319 | -98.07312 | 42959 ft | 466 kts | 238° |